﻿<?xml version="1.0" encoding="UTF-8" standalone="no"?>
<gpx xmlns="http://www.topografix.com/GPX/1/1" xmlns:gpxtpx="http://www.garmin.com/xmlschemas/TrackPointExtension/v1" xmlns:xsi="http://www.w3.org/2001/XMLSchema-instance" creator="Hribi.net" version="1.1" xsi:schemaLocation="http://www.topografix.com/GPX/1/1 http://www.topografix.com/GPX/1/1/gpx.xsd http://www.garmin.com/xmlschemas/TrackPointExtension/v1 http://www.garmin.com/xmlschemas/TrackPointExtensionv1.xsd">
  <metadata>
    <name>GPS sled</name>
    <desc>www.hribi.net</desc>
    <author>
      <name>hribi.net</name>
    </author>
    <link href="http://www.hribi.net">
      <text>Hribi.net</text>
    </link>
  </metadata>
  <trk>
    <trkseg>
      <trkpt lat="46.382770" lon="14.444240">
        <ele>823.9799802816</ele>
        <time>2011-04-23T17:03:15Z</time>
      </trkpt>
      <trkpt lat="46.382770" lon="14.444240">
        <ele>825.4199627712</ele>
        <time>2011-04-23T17:03:09Z</time>
      </trkpt>
      <trkpt lat="46.382770" lon="14.444240">
        <ele>824.4599744448</ele>
        <time>2011-04-23T17:02:47Z</time>
      </trkpt>
      <trkpt lat="46.382770" lon="14.444271">
        <ele>824.939968608</ele>
        <time>2011-04-23T17:02:24Z</time>
      </trkpt>
      <trkpt lat="46.382770" lon="14.444271">
        <ele>824.4599744448</ele>
        <time>2011-04-23T17:01:58Z</time>
      </trkpt>
      <trkpt lat="46.382754" lon="14.444264">
        <ele>823.9799802816</ele>
        <time>2011-04-23T17:01:47Z</time>
      </trkpt>
      <trkpt lat="46.382754" lon="14.444264">
        <ele>823.9799802816</ele>
        <time>2011-04-23T17:01:31Z</time>
      </trkpt>
      <trkpt lat="46.382797" lon="14.444183">
        <ele>824.939968608</ele>
        <time>2011-04-23T17:01:20Z</time>
      </trkpt>
      <trkpt lat="46.382840" lon="14.444128">
        <ele>824.939968608</ele>
        <time>2011-04-23T17:01:16Z</time>
      </trkpt>
      <trkpt lat="46.382867" lon="14.444111">
        <ele>824.939968608</ele>
        <time>2011-04-23T17:01:12Z</time>
      </trkpt>
      <trkpt lat="46.382883" lon="14.444097">
        <ele>825.8999569344</ele>
        <time>2011-04-23T17:01:11Z</time>
      </trkpt>
      <trkpt lat="46.382888" lon="14.444083">
        <ele>821.090015424</ele>
        <time>2011-04-23T17:01:09Z</time>
      </trkpt>
      <trkpt lat="46.382936" lon="14.444042">
        <ele>826.3799510976</ele>
        <time>2011-04-23T17:01:05Z</time>
      </trkpt>
      <trkpt lat="46.383012" lon="14.443968">
        <ele>827.8199335872</ele>
        <time>2011-04-23T17:00:53Z</time>
      </trkpt>
      <trkpt lat="46.383044" lon="14.443958">
        <ele>828.7799219136</ele>
        <time>2011-04-23T17:00:50Z</time>
      </trkpt>
      <trkpt lat="46.383082" lon="14.443882">
        <ele>829.2599160768</ele>
        <time>2011-04-23T17:00:45Z</time>
      </trkpt>
      <trkpt lat="46.383087" lon="14.443878">
        <ele>829.7499101184</ele>
        <time>2011-04-23T17:00:44Z</time>
      </trkpt>
      <trkpt lat="46.383150" lon="14.443853">
        <ele>830.2299042816</ele>
        <time>2011-04-23T17:00:30Z</time>
      </trkpt>
      <trkpt lat="46.383204" lon="14.443827">
        <ele>830.2299042816</ele>
        <time>2011-04-23T17:00:26Z</time>
      </trkpt>
      <trkpt lat="46.383263" lon="14.443717">
        <ele>831.6698867712</ele>
        <time>2011-04-23T17:00:14Z</time>
      </trkpt>
      <trkpt lat="46.383318" lon="14.443591">
        <ele>832.6298750976</ele>
        <time>2011-04-23T17:00:03Z</time>
      </trkpt>
      <trkpt lat="46.383365" lon="14.443514">
        <ele>832.6298750976</ele>
        <time>2011-04-23T16:59:55Z</time>
      </trkpt>
      <trkpt lat="46.383381" lon="14.443484">
        <ele>833.1098692608</ele>
        <time>2011-04-23T16:59:54Z</time>
      </trkpt>
      <trkpt lat="46.383414" lon="14.443430">
        <ele>833.589863424</ele>
        <time>2011-04-23T16:59:48Z</time>
      </trkpt>
      <trkpt lat="46.383446" lon="14.443392">
        <ele>834.0698575872</ele>
        <time>2011-04-23T16:59:46Z</time>
      </trkpt>
      <trkpt lat="46.383467" lon="14.443367">
        <ele>834.0698575872</ele>
        <time>2011-04-23T16:59:43Z</time>
      </trkpt>
      <trkpt lat="46.383483" lon="14.443343">
        <ele>833.589863424</ele>
        <time>2011-04-23T16:59:42Z</time>
      </trkpt>
      <trkpt lat="46.383521" lon="14.443277">
        <ele>834.5498517504</ele>
        <time>2011-04-23T16:59:36Z</time>
      </trkpt>
      <trkpt lat="46.383553" lon="14.443236">
        <ele>835.0298459136</ele>
        <time>2011-04-23T16:59:33Z</time>
      </trkpt>
      <trkpt lat="46.383580" lon="14.443192">
        <ele>835.0298459136</ele>
        <time>2011-04-23T16:59:31Z</time>
      </trkpt>
      <trkpt lat="46.383618" lon="14.443103">
        <ele>835.5098400768</ele>
        <time>2011-04-23T16:59:25Z</time>
      </trkpt>
      <trkpt lat="46.383677" lon="14.443034">
        <ele>835.5098400768</ele>
        <time>2011-04-23T16:59:20Z</time>
      </trkpt>
      <trkpt lat="46.383693" lon="14.442989">
        <ele>836.9498225664</ele>
        <time>2011-04-23T16:59:17Z</time>
      </trkpt>
      <trkpt lat="46.383747" lon="14.442936">
        <ele>837.9198107712</ele>
        <time>2011-04-23T16:59:12Z</time>
      </trkpt>
      <trkpt lat="46.383783" lon="14.442914">
        <ele>837.9198107712</ele>
        <time>2011-04-23T16:59:08Z</time>
      </trkpt>
      <trkpt lat="46.383859" lon="14.442828">
        <ele>840.3197815872</ele>
        <time>2011-04-23T16:58:56Z</time>
      </trkpt>
      <trkpt lat="46.383880" lon="14.442803">
        <ele>840.7997757504</ele>
        <time>2011-04-23T16:58:52Z</time>
      </trkpt>
      <trkpt lat="46.383923" lon="14.442764">
        <ele>841.2797699136</ele>
        <time>2011-04-23T16:58:49Z</time>
      </trkpt>
      <trkpt lat="46.384025" lon="14.442758">
        <ele>842.7197524032</ele>
        <time>2011-04-23T16:58:38Z</time>
      </trkpt>
      <trkpt lat="46.384073" lon="14.442698">
        <ele>843.6797407296</ele>
        <time>2011-04-23T16:58:34Z</time>
      </trkpt>
      <trkpt lat="46.384138" lon="14.442568">
        <ele>843.1997465664</ele>
        <time>2011-04-23T16:58:29Z</time>
      </trkpt>
      <trkpt lat="46.384176" lon="14.442544">
        <ele>843.6797407296</ele>
        <time>2011-04-23T16:58:22Z</time>
      </trkpt>
      <trkpt lat="46.384149" lon="14.442458">
        <ele>842.7197524032</ele>
        <time>2011-04-23T16:58:07Z</time>
      </trkpt>
      <trkpt lat="46.384143" lon="14.442435">
        <ele>843.6797407296</ele>
        <time>2011-04-23T16:57:52Z</time>
      </trkpt>
      <trkpt lat="46.384143" lon="14.442435">
        <ele>844.1697347712</ele>
        <time>2011-04-23T16:57:25Z</time>
      </trkpt>
      <trkpt lat="46.384143" lon="14.442403">
        <ele>844.1697347712</ele>
        <time>2011-04-23T16:56:49Z</time>
      </trkpt>
      <trkpt lat="46.384176" lon="14.442360">
        <ele>844.1697347712</ele>
        <time>2011-04-23T16:56:38Z</time>
      </trkpt>
      <trkpt lat="46.384224" lon="14.442260">
        <ele>845.1297230976</ele>
        <time>2011-04-23T16:56:26Z</time>
      </trkpt>
      <trkpt lat="46.384255" lon="14.442210">
        <ele>845.6097172608</ele>
        <time>2011-04-23T16:56:22Z</time>
      </trkpt>
      <trkpt lat="46.384288" lon="14.442171">
        <ele>846.089711424</ele>
        <time>2011-04-23T16:56:19Z</time>
      </trkpt>
      <trkpt lat="46.384325" lon="14.442124">
        <ele>846.5697055872</ele>
        <time>2011-04-23T16:56:14Z</time>
      </trkpt>
      <trkpt lat="46.384353" lon="14.442078">
        <ele>847.0496997504</ele>
        <time>2011-04-23T16:56:11Z</time>
      </trkpt>
      <trkpt lat="46.384407" lon="14.442046">
        <ele>848.0096880768</ele>
        <time>2011-04-23T16:56:04Z</time>
      </trkpt>
      <trkpt lat="46.384450" lon="14.442037">
        <ele>848.9696764032</ele>
        <time>2011-04-23T16:55:59Z</time>
      </trkpt>
      <trkpt lat="46.384525" lon="14.441908">
        <ele>850.889653056</ele>
        <time>2011-04-23T16:55:48Z</time>
      </trkpt>
      <trkpt lat="46.384568" lon="14.441824">
        <ele>851.8596412608</ele>
        <time>2011-04-23T16:55:36Z</time>
      </trkpt>
      <trkpt lat="46.384642" lon="14.441684">
        <ele>853.7796179136</ele>
        <time>2011-04-23T16:55:24Z</time>
      </trkpt>
      <trkpt lat="46.384701" lon="14.441652">
        <ele>856.1795887296</ele>
        <time>2011-04-23T16:55:13Z</time>
      </trkpt>
      <trkpt lat="46.384825" lon="14.441574">
        <ele>859.0695535872</ele>
        <time>2011-04-23T16:54:59Z</time>
      </trkpt>
      <trkpt lat="46.384868" lon="14.441436">
        <ele>860.98953024</ele>
        <time>2011-04-23T16:54:46Z</time>
      </trkpt>
      <trkpt lat="46.384895" lon="14.441365">
        <ele>861.4695244032</ele>
        <time>2011-04-23T16:54:41Z</time>
      </trkpt>
      <trkpt lat="46.384943" lon="14.441303">
        <ele>862.4295127296</ele>
        <time>2011-04-23T16:54:35Z</time>
      </trkpt>
      <trkpt lat="46.385013" lon="14.441231">
        <ele>863.389501056</ele>
        <time>2011-04-23T16:54:30Z</time>
      </trkpt>
      <trkpt lat="46.385040" lon="14.441198">
        <ele>863.8694952192</ele>
        <time>2011-04-23T16:54:23Z</time>
      </trkpt>
      <trkpt lat="46.385044" lon="14.441163">
        <ele>864.3494893824</ele>
        <time>2011-04-23T16:54:18Z</time>
      </trkpt>
      <trkpt lat="46.385142" lon="14.441034">
        <ele>865.3094777088</ele>
        <time>2011-04-23T16:54:04Z</time>
      </trkpt>
      <trkpt lat="46.385162" lon="14.440973">
        <ele>866.7594600768</ele>
        <time>2011-04-23T16:54:00Z</time>
      </trkpt>
      <trkpt lat="46.385189" lon="14.440911">
        <ele>866.7594600768</ele>
        <time>2011-04-23T16:53:56Z</time>
      </trkpt>
      <trkpt lat="46.385227" lon="14.440789">
        <ele>868.6794367296</ele>
        <time>2011-04-23T16:53:48Z</time>
      </trkpt>
      <trkpt lat="46.385217" lon="14.440532">
        <ele>870.1194192192</ele>
        <time>2011-04-23T16:53:34Z</time>
      </trkpt>
      <trkpt lat="46.385227" lon="14.440479">
        <ele>871.0794075456</ele>
        <time>2011-04-23T16:53:30Z</time>
      </trkpt>
      <trkpt lat="46.385275" lon="14.440456">
        <ele>870.5994133824</ele>
        <time>2011-04-23T16:53:26Z</time>
      </trkpt>
      <trkpt lat="46.385313" lon="14.440415">
        <ele>871.0794075456</ele>
        <time>2011-04-23T16:53:22Z</time>
      </trkpt>
      <trkpt lat="46.385361" lon="14.440422">
        <ele>871.0794075456</ele>
        <time>2011-04-23T16:53:14Z</time>
      </trkpt>
      <trkpt lat="46.385399" lon="14.440404">
        <ele>871.5594017088</ele>
        <time>2011-04-23T16:53:10Z</time>
      </trkpt>
      <trkpt lat="46.385409" lon="14.440377">
        <ele>872.039395872</ele>
        <time>2011-04-23T16:53:09Z</time>
      </trkpt>
      <trkpt lat="46.385538" lon="14.440296">
        <ele>872.9993841984</ele>
        <time>2011-04-23T16:52:59Z</time>
      </trkpt>
      <trkpt lat="46.385587" lon="14.440245">
        <ele>872.9993841984</ele>
        <time>2011-04-23T16:52:55Z</time>
      </trkpt>
      <trkpt lat="46.385603" lon="14.440225">
        <ele>873.48937824</ele>
        <time>2011-04-23T16:52:54Z</time>
      </trkpt>
      <trkpt lat="46.385709" lon="14.440154">
        <ele>875.4093548928</ele>
        <time>2011-04-23T16:52:42Z</time>
      </trkpt>
      <trkpt lat="46.385779" lon="14.440085">
        <ele>875.889349056</ele>
        <time>2011-04-23T16:52:35Z</time>
      </trkpt>
      <trkpt lat="46.385791" lon="14.440074">
        <ele>876.8493373824</ele>
        <time>2011-04-23T16:52:35Z</time>
      </trkpt>
      <trkpt lat="46.385817" lon="14.439970">
        <ele>877.8093257088</ele>
        <time>2011-04-23T16:52:21Z</time>
      </trkpt>
      <trkpt lat="46.385827" lon="14.439957">
        <ele>878.289319872</ele>
        <time>2011-04-23T16:52:07Z</time>
      </trkpt>
      <trkpt lat="46.385850" lon="14.439972">
        <ele>879.2493081984</ele>
        <time>2011-04-23T16:51:52Z</time>
      </trkpt>
      <trkpt lat="46.385893" lon="14.439910">
        <ele>879.7293023616</ele>
        <time>2011-04-23T16:51:38Z</time>
      </trkpt>
      <trkpt lat="46.385924" lon="14.439848">
        <ele>880.6992905664</ele>
        <time>2011-04-23T16:51:34Z</time>
      </trkpt>
      <trkpt lat="46.385967" lon="14.439805">
        <ele>881.1792847296</ele>
        <time>2011-04-23T16:51:29Z</time>
      </trkpt>
      <trkpt lat="46.386042" lon="14.439781">
        <ele>881.6592788928</ele>
        <time>2011-04-23T16:51:22Z</time>
      </trkpt>
      <trkpt lat="46.386091" lon="14.439741">
        <ele>882.139273056</ele>
        <time>2011-04-23T16:51:18Z</time>
      </trkpt>
      <trkpt lat="46.386138" lon="14.439753">
        <ele>882.6192672192</ele>
        <time>2011-04-23T16:51:14Z</time>
      </trkpt>
      <trkpt lat="46.386220" lon="14.439846">
        <ele>884.0592497088</ele>
        <time>2011-04-23T16:51:07Z</time>
      </trkpt>
      <trkpt lat="46.386290" lon="14.439890">
        <ele>885.9792263616</ele>
        <time>2011-04-23T16:50:59Z</time>
      </trkpt>
      <trkpt lat="46.386353" lon="14.439853">
        <ele>887.8992030144</ele>
        <time>2011-04-23T16:50:51Z</time>
      </trkpt>
      <trkpt lat="46.386385" lon="14.439818">
        <ele>889.3491853824</ele>
        <time>2011-04-23T16:50:44Z</time>
      </trkpt>
      <trkpt lat="46.386412" lon="14.439792">
        <ele>889.8291795456</ele>
        <time>2011-04-23T16:50:40Z</time>
      </trkpt>
      <trkpt lat="46.386520" lon="14.439768">
        <ele>891.2691620352</ele>
        <time>2011-04-23T16:50:28Z</time>
      </trkpt>
      <trkpt lat="46.386584" lon="14.439765">
        <ele>892.2291503616</ele>
        <time>2011-04-23T16:50:24Z</time>
      </trkpt>
      <trkpt lat="46.386600" lon="14.439773">
        <ele>892.7091445248</ele>
        <time>2011-04-23T16:50:12Z</time>
      </trkpt>
      <trkpt lat="46.386665" lon="14.439754">
        <ele>894.6291211776</ele>
        <time>2011-04-23T16:49:58Z</time>
      </trkpt>
      <trkpt lat="46.386713" lon="14.439691">
        <ele>895.1091153408</ele>
        <time>2011-04-23T16:49:53Z</time>
      </trkpt>
      <trkpt lat="46.386718" lon="14.439674">
        <ele>894.6291211776</ele>
        <time>2011-04-23T16:49:48Z</time>
      </trkpt>
      <trkpt lat="46.386702" lon="14.439579">
        <ele>894.1491270144</ele>
        <time>2011-04-23T16:49:35Z</time>
      </trkpt>
      <trkpt lat="46.386686" lon="14.439521">
        <ele>894.1491270144</ele>
        <time>2011-04-23T16:49:33Z</time>
      </trkpt>
      <trkpt lat="46.386654" lon="14.439317">
        <ele>893.189138688</ele>
        <time>2011-04-23T16:49:22Z</time>
      </trkpt>
      <trkpt lat="46.386665" lon="14.439175">
        <ele>892.7091445248</ele>
        <time>2011-04-23T16:49:15Z</time>
      </trkpt>
      <trkpt lat="46.386675" lon="14.439151">
        <ele>893.189138688</ele>
        <time>2011-04-23T16:49:06Z</time>
      </trkpt>
      <trkpt lat="46.386675" lon="14.439151">
        <ele>893.189138688</ele>
        <time>2011-04-23T16:48:48Z</time>
      </trkpt>
      <trkpt lat="46.386670" lon="14.439144">
        <ele>893.189138688</ele>
        <time>2011-04-23T16:48:31Z</time>
      </trkpt>
      <trkpt lat="46.386654" lon="14.439121">
        <ele>893.189138688</ele>
        <time>2011-04-23T16:47:57Z</time>
      </trkpt>
      <trkpt lat="46.386632" lon="14.439135">
        <ele>893.6691328512</ele>
        <time>2011-04-23T16:47:37Z</time>
      </trkpt>
      <trkpt lat="46.386654" lon="14.439159">
        <ele>893.189138688</ele>
        <time>2011-04-23T16:47:19Z</time>
      </trkpt>
      <trkpt lat="46.386654" lon="14.439159">
        <ele>893.189138688</ele>
        <time>2011-04-23T16:47:06Z</time>
      </trkpt>
      <trkpt lat="46.386654" lon="14.439159">
        <ele>893.189138688</ele>
        <time>2011-04-23T16:46:48Z</time>
      </trkpt>
      <trkpt lat="46.386665" lon="14.439167">
        <ele>893.6691328512</ele>
        <time>2011-04-23T16:46:32Z</time>
      </trkpt>
      <trkpt lat="46.386665" lon="14.439360">
        <ele>894.1491270144</ele>
        <time>2011-04-23T16:46:21Z</time>
      </trkpt>
      <trkpt lat="46.386649" lon="14.439447">
        <ele>894.6291211776</ele>
        <time>2011-04-23T16:46:12Z</time>
      </trkpt>
      <trkpt lat="46.386643" lon="14.439465">
        <ele>895.1091153408</ele>
        <time>2011-04-23T16:46:08Z</time>
      </trkpt>
      <trkpt lat="46.386649" lon="14.439486">
        <ele>895.5991093824</ele>
        <time>2011-04-23T16:46:06Z</time>
      </trkpt>
      <trkpt lat="46.386654" lon="14.439524">
        <ele>895.1091153408</ele>
        <time>2011-04-23T16:46:01Z</time>
      </trkpt>
      <trkpt lat="46.386665" lon="14.439561">
        <ele>895.5991093824</ele>
        <time>2011-04-23T16:45:57Z</time>
      </trkpt>
      <trkpt lat="46.386681" lon="14.439584">
        <ele>896.0791035456</ele>
        <time>2011-04-23T16:45:54Z</time>
      </trkpt>
      <trkpt lat="46.386718" lon="14.439581">
        <ele>896.5590977088</ele>
        <time>2011-04-23T16:45:50Z</time>
      </trkpt>
      <trkpt lat="46.386756" lon="14.439577">
        <ele>897.5190860352</ele>
        <time>2011-04-23T16:45:46Z</time>
      </trkpt>
      <trkpt lat="46.386837" lon="14.439608">
        <ele>898.9590685248</ele>
        <time>2011-04-23T16:45:39Z</time>
      </trkpt>
      <trkpt lat="46.386889" lon="14.439604">
        <ele>898.9590685248</ele>
        <time>2011-04-23T16:45:35Z</time>
      </trkpt>
      <trkpt lat="46.386955" lon="14.439610">
        <ele>900.3990510144</ele>
        <time>2011-04-23T16:45:30Z</time>
      </trkpt>
      <trkpt lat="46.386965" lon="14.439599">
        <ele>900.8790451776</ele>
        <time>2011-04-23T16:45:27Z</time>
      </trkpt>
      <trkpt lat="46.387002" lon="14.439602">
        <ele>901.3590393408</ele>
        <time>2011-04-23T16:45:23Z</time>
      </trkpt>
      <trkpt lat="46.387024" lon="14.439581">
        <ele>901.839033504</ele>
        <time>2011-04-23T16:45:20Z</time>
      </trkpt>
      <trkpt lat="46.387034" lon="14.439592">
        <ele>902.3190276672</ele>
        <time>2011-04-23T16:45:19Z</time>
      </trkpt>
      <trkpt lat="46.387100" lon="14.439581">
        <ele>903.7690100352</ele>
        <time>2011-04-23T16:45:12Z</time>
      </trkpt>
      <trkpt lat="46.387174" lon="14.439559">
        <ele>904.7289983616</ele>
        <time>2011-04-23T16:45:05Z</time>
      </trkpt>
      <trkpt lat="46.387255" lon="14.439552">
        <ele>906.6489750144</ele>
        <time>2011-04-23T16:44:56Z</time>
      </trkpt>
      <trkpt lat="46.387302" lon="14.439537">
        <ele>907.1289691776</ele>
        <time>2011-04-23T16:44:45Z</time>
      </trkpt>
      <trkpt lat="46.387373" lon="14.439486">
        <ele>909.5289399936</ele>
        <time>2011-04-23T16:44:34Z</time>
      </trkpt>
      <trkpt lat="46.387400" lon="14.439450">
        <ele>910.0189340352</ele>
        <time>2011-04-23T16:44:32Z</time>
      </trkpt>
      <trkpt lat="46.387545" lon="14.439439">
        <ele>911.4589165248</ele>
        <time>2011-04-23T16:44:21Z</time>
      </trkpt>
      <trkpt lat="46.387565" lon="14.439426">
        <ele>913.3788931776</ele>
        <time>2011-04-23T16:44:07Z</time>
      </trkpt>
      <trkpt lat="46.387588" lon="14.439349">
        <ele>914.338881504</ele>
        <time>2011-04-23T16:43:57Z</time>
      </trkpt>
      <trkpt lat="46.387690" lon="14.439288">
        <ele>917.7088405248</ele>
        <time>2011-04-23T16:43:43Z</time>
      </trkpt>
      <trkpt lat="46.387705" lon="14.439274">
        <ele>918.188834688</ele>
        <time>2011-04-23T16:43:42Z</time>
      </trkpt>
      <trkpt lat="46.387748" lon="14.439210">
        <ele>919.1488230144</ele>
        <time>2011-04-23T16:43:35Z</time>
      </trkpt>
      <trkpt lat="46.387855" lon="14.439140">
        <ele>922.0287879936</ele>
        <time>2011-04-23T16:43:24Z</time>
      </trkpt>
      <trkpt lat="46.387866" lon="14.439144">
        <ele>921.5487938304</ele>
        <time>2011-04-23T16:43:23Z</time>
      </trkpt>
      <trkpt lat="46.387888" lon="14.439151">
        <ele>922.5087821568</ele>
        <time>2011-04-23T16:43:21Z</time>
      </trkpt>
      <trkpt lat="46.387893" lon="14.439047">
        <ele>922.98877632</ele>
        <time>2011-04-23T16:43:11Z</time>
      </trkpt>
      <trkpt lat="46.387888" lon="14.438962">
        <ele>923.9487646464</ele>
        <time>2011-04-23T16:43:07Z</time>
      </trkpt>
      <trkpt lat="46.387861" lon="14.438869">
        <ele>925.3987470144</ele>
        <time>2011-04-23T16:43:01Z</time>
      </trkpt>
      <trkpt lat="46.387839" lon="14.438802">
        <ele>925.3987470144</ele>
        <time>2011-04-23T16:42:57Z</time>
      </trkpt>
      <trkpt lat="46.387818" lon="14.438743">
        <ele>926.838729504</ele>
        <time>2011-04-23T16:42:53Z</time>
      </trkpt>
      <trkpt lat="46.387786" lon="14.438620">
        <ele>927.7987178304</ele>
        <time>2011-04-23T16:42:44Z</time>
      </trkpt>
      <trkpt lat="46.387743" lon="14.438517">
        <ele>929.23870032</ele>
        <time>2011-04-23T16:42:34Z</time>
      </trkpt>
      <trkpt lat="46.387678" lon="14.438379">
        <ele>930.6786828096</ele>
        <time>2011-04-23T16:42:21Z</time>
      </trkpt>
      <trkpt lat="46.387678" lon="14.438379">
        <ele>931.638671136</ele>
        <time>2011-04-23T16:42:19Z</time>
      </trkpt>
      <trkpt lat="46.387678" lon="14.438321">
        <ele>932.6086593408</ele>
        <time>2011-04-23T16:42:06Z</time>
      </trkpt>
      <trkpt lat="46.387674" lon="14.438278">
        <ele>932.1286651776</ele>
        <time>2011-04-23T16:42:03Z</time>
      </trkpt>
      <trkpt lat="46.387674" lon="14.438212">
        <ele>934.0486418304</ele>
        <time>2011-04-23T16:41:58Z</time>
      </trkpt>
      <trkpt lat="46.387641" lon="14.438114">
        <ele>935.0086301568</ele>
        <time>2011-04-23T16:41:51Z</time>
      </trkpt>
      <trkpt lat="46.387615" lon="14.438002">
        <ele>935.48862432</ele>
        <time>2011-04-23T16:41:44Z</time>
      </trkpt>
      <trkpt lat="46.387619" lon="14.437931">
        <ele>936.4486126464</ele>
        <time>2011-04-23T16:41:40Z</time>
      </trkpt>
      <trkpt lat="46.387624" lon="14.437869">
        <ele>936.4486126464</ele>
        <time>2011-04-23T16:41:36Z</time>
      </trkpt>
      <trkpt lat="46.387631" lon="14.437833">
        <ele>936.4486126464</ele>
        <time>2011-04-23T16:41:35Z</time>
      </trkpt>
      <trkpt lat="46.387700" lon="14.437626">
        <ele>938.8485834624</ele>
        <time>2011-04-23T16:41:24Z</time>
      </trkpt>
      <trkpt lat="46.387710" lon="14.437554">
        <ele>939.338577504</ele>
        <time>2011-04-23T16:41:19Z</time>
      </trkpt>
      <trkpt lat="46.387786" lon="14.437441">
        <ele>941.73854832</ele>
        <time>2011-04-23T16:41:08Z</time>
      </trkpt>
      <trkpt lat="46.387786" lon="14.437421">
        <ele>941.73854832</ele>
        <time>2011-04-23T16:41:05Z</time>
      </trkpt>
      <trkpt lat="46.387775" lon="14.437381">
        <ele>941.2585541568</ele>
        <time>2011-04-23T16:41:02Z</time>
      </trkpt>
      <trkpt lat="46.387812" lon="14.437255">
        <ele>944.138519136</ele>
        <time>2011-04-23T16:40:53Z</time>
      </trkpt>
      <trkpt lat="46.387866" lon="14.437214">
        <ele>945.0985074624</ele>
        <time>2011-04-23T16:40:46Z</time>
      </trkpt>
      <trkpt lat="46.387893" lon="14.437218">
        <ele>946.5484898304</ele>
        <time>2011-04-23T16:40:44Z</time>
      </trkpt>
      <trkpt lat="46.387915" lon="14.437182">
        <ele>947.0284839936</ele>
        <time>2011-04-23T16:40:39Z</time>
      </trkpt>
      <trkpt lat="46.387941" lon="14.437109">
        <ele>947.98847232</ele>
        <time>2011-04-23T16:40:34Z</time>
      </trkpt>
      <trkpt lat="46.387968" lon="14.436999">
        <ele>948.4684664832</ele>
        <time>2011-04-23T16:40:26Z</time>
      </trkpt>
      <trkpt lat="46.387984" lon="14.436949">
        <ele>949.9084489728</ele>
        <time>2011-04-23T16:40:23Z</time>
      </trkpt>
      <trkpt lat="46.388001" lon="14.436931">
        <ele>950.388443136</ele>
        <time>2011-04-23T16:40:11Z</time>
      </trkpt>
      <trkpt lat="46.388037" lon="14.436811">
        <ele>952.3084197888</ele>
        <time>2011-04-23T16:39:59Z</time>
      </trkpt>
      <trkpt lat="46.388064" lon="14.436679">
        <ele>953.7584021568</ele>
        <time>2011-04-23T16:39:44Z</time>
      </trkpt>
      <trkpt lat="46.388070" lon="14.436492">
        <ele>956.1583729728</ele>
        <time>2011-04-23T16:39:31Z</time>
      </trkpt>
      <trkpt lat="46.388092" lon="14.436451">
        <ele>956.638367136</ele>
        <time>2011-04-23T16:39:27Z</time>
      </trkpt>
      <trkpt lat="46.388103" lon="14.436397">
        <ele>957.1183612992</ele>
        <time>2011-04-23T16:39:23Z</time>
      </trkpt>
      <trkpt lat="46.388162" lon="14.436340">
        <ele>958.5583437888</ele>
        <time>2011-04-23T16:39:14Z</time>
      </trkpt>
      <trkpt lat="46.388221" lon="14.436314">
        <ele>959.9983262784</ele>
        <time>2011-04-23T16:39:06Z</time>
      </trkpt>
      <trkpt lat="46.388237" lon="14.436274">
        <ele>960.9683144832</ele>
        <time>2011-04-23T16:39:01Z</time>
      </trkpt>
      <trkpt lat="46.388252" lon="14.436221">
        <ele>961.9283028096</ele>
        <time>2011-04-23T16:38:51Z</time>
      </trkpt>
      <trkpt lat="46.388264" lon="14.436147">
        <ele>963.3682852992</ele>
        <time>2011-04-23T16:38:38Z</time>
      </trkpt>
      <trkpt lat="46.388274" lon="14.436000">
        <ele>964.8082677888</ele>
        <time>2011-04-23T16:38:27Z</time>
      </trkpt>
      <trkpt lat="46.388274" lon="14.435961">
        <ele>965.288261952</ele>
        <time>2011-04-23T16:38:23Z</time>
      </trkpt>
      <trkpt lat="46.388317" lon="14.435911">
        <ele>966.2482502784</ele>
        <time>2011-04-23T16:38:16Z</time>
      </trkpt>
      <trkpt lat="46.388349" lon="14.435899">
        <ele>966.7282444416</ele>
        <time>2011-04-23T16:38:14Z</time>
      </trkpt>
      <trkpt lat="46.388424" lon="14.435813">
        <ele>967.688232768</ele>
        <time>2011-04-23T16:38:04Z</time>
      </trkpt>
      <trkpt lat="46.388515" lon="14.435794">
        <ele>969.138215136</ele>
        <time>2011-04-23T16:37:56Z</time>
      </trkpt>
      <trkpt lat="46.388564" lon="14.435779">
        <ele>969.6182092992</ele>
        <time>2011-04-23T16:37:52Z</time>
      </trkpt>
      <trkpt lat="46.388627" lon="14.435736">
        <ele>970.0982034624</ele>
        <time>2011-04-23T16:37:47Z</time>
      </trkpt>
      <trkpt lat="46.388756" lon="14.435645">
        <ele>972.4981742784</ele>
        <time>2011-04-23T16:37:35Z</time>
      </trkpt>
      <trkpt lat="46.388881" lon="14.435615">
        <ele>975.3781392576</ele>
        <time>2011-04-23T16:37:21Z</time>
      </trkpt>
      <trkpt lat="46.388901" lon="14.435615">
        <ele>976.3481274624</ele>
        <time>2011-04-23T16:37:18Z</time>
      </trkpt>
      <trkpt lat="46.388944" lon="14.435511">
        <ele>977.788109952</ele>
        <time>2011-04-23T16:37:10Z</time>
      </trkpt>
      <trkpt lat="46.388966" lon="14.435368">
        <ele>980.6680749312</ele>
        <time>2011-04-23T16:36:57Z</time>
      </trkpt>
      <trkpt lat="46.389003" lon="14.435380">
        <ele>981.1480690944</ele>
        <time>2011-04-23T16:36:46Z</time>
      </trkpt>
      <trkpt lat="46.389079" lon="14.435283">
        <ele>983.0780456256</ele>
        <time>2011-04-23T16:36:35Z</time>
      </trkpt>
      <trkpt lat="46.389132" lon="14.435249">
        <ele>984.9980222784</ele>
        <time>2011-04-23T16:36:24Z</time>
      </trkpt>
      <trkpt lat="46.389197" lon="14.435193">
        <ele>986.9179989312</ele>
        <time>2011-04-23T16:36:12Z</time>
      </trkpt>
      <trkpt lat="46.389260" lon="14.435080">
        <ele>988.3579814208</ele>
        <time>2011-04-23T16:36:00Z</time>
      </trkpt>
      <trkpt lat="46.389299" lon="14.435085">
        <ele>988.837975584</ele>
        <time>2011-04-23T16:35:56Z</time>
      </trkpt>
      <trkpt lat="46.389385" lon="14.435011">
        <ele>990.287957952</ele>
        <time>2011-04-23T16:35:45Z</time>
      </trkpt>
      <trkpt lat="46.389405" lon="14.434952">
        <ele>991.2479462784</ele>
        <time>2011-04-23T16:35:41Z</time>
      </trkpt>
      <trkpt lat="46.389416" lon="14.434861">
        <ele>991.2479462784</ele>
        <time>2011-04-23T16:35:37Z</time>
      </trkpt>
      <trkpt lat="46.389416" lon="14.434844">
        <ele>992.2079346048</ele>
        <time>2011-04-23T16:35:37Z</time>
      </trkpt>
      <trkpt lat="46.389464" lon="14.434675">
        <ele>992.687928768</ele>
        <time>2011-04-23T16:35:24Z</time>
      </trkpt>
      <trkpt lat="46.389507" lon="14.434659">
        <ele>993.6479170944</ele>
        <time>2011-04-23T16:35:20Z</time>
      </trkpt>
      <trkpt lat="46.389540" lon="14.434702">
        <ele>993.6479170944</ele>
        <time>2011-04-23T16:35:11Z</time>
      </trkpt>
      <trkpt lat="46.389566" lon="14.434666">
        <ele>995.5678937472</ele>
        <time>2011-04-23T16:34:58Z</time>
      </trkpt>
      <trkpt lat="46.389599" lon="14.434668">
        <ele>994.6079054208</ele>
        <time>2011-04-23T16:34:55Z</time>
      </trkpt>
      <trkpt lat="46.389669" lon="14.434652">
        <ele>995.5678937472</ele>
        <time>2011-04-23T16:34:51Z</time>
      </trkpt>
      <trkpt lat="46.389749" lon="14.434671">
        <ele>997.4978702784</ele>
        <time>2011-04-23T16:34:47Z</time>
      </trkpt>
      <trkpt lat="46.389798" lon="14.434662">
        <ele>997.0078762368</ele>
        <time>2011-04-23T16:34:43Z</time>
      </trkpt>
      <trkpt lat="46.389862" lon="14.434524">
        <ele>997.0078762368</ele>
        <time>2011-04-23T16:34:38Z</time>
      </trkpt>
      <trkpt lat="46.389893" lon="14.434509">
        <ele>997.0078762368</ele>
        <time>2011-04-23T16:34:35Z</time>
      </trkpt>
      <trkpt lat="46.389916" lon="14.434511">
        <ele>997.0078762368</ele>
        <time>2011-04-23T16:34:35Z</time>
      </trkpt>
      <trkpt lat="46.390011" lon="14.434523">
        <ele>992.687928768</ele>
        <time>2011-04-23T16:34:31Z</time>
      </trkpt>
      <trkpt lat="46.390237" lon="14.434528">
        <ele>989.3179697472</ele>
        <time>2011-04-23T16:34:20Z</time>
      </trkpt>
      <trkpt lat="46.390179" lon="14.434559">
        <ele>989.3179697472</ele>
        <time>2011-04-23T16:34:20Z</time>
      </trkpt>
      <trkpt lat="46.390054" lon="14.434180">
        <ele>1005.187776768</ele>
        <time>2011-04-23T16:32:55Z</time>
      </trkpt>
      <trkpt lat="46.390077" lon="14.434159">
        <ele>1005.6677709312</ele>
        <time>2011-04-23T16:32:54Z</time>
      </trkpt>
      <trkpt lat="46.390104" lon="14.434044">
        <ele>1007.1077534208</ele>
        <time>2011-04-23T16:32:39Z</time>
      </trkpt>
      <trkpt lat="46.390151" lon="14.433890">
        <ele>1009.9877184</ele>
        <time>2011-04-23T16:32:27Z</time>
      </trkpt>
      <trkpt lat="46.390206" lon="14.433809">
        <ele>1009.9877184</ele>
        <time>2011-04-23T16:32:13Z</time>
      </trkpt>
      <trkpt lat="46.390265" lon="14.433746">
        <ele>1011.4277008896</ele>
        <time>2011-04-23T16:32:00Z</time>
      </trkpt>
      <trkpt lat="46.390291" lon="14.433634">
        <ele>1012.8776832576</ele>
        <time>2011-04-23T16:31:48Z</time>
      </trkpt>
      <trkpt lat="46.390365" lon="14.433527">
        <ele>1013.3576774208</ele>
        <time>2011-04-23T16:31:37Z</time>
      </trkpt>
      <trkpt lat="46.390404" lon="14.433502">
        <ele>1014.3176657472</ele>
        <time>2011-04-23T16:31:33Z</time>
      </trkpt>
      <trkpt lat="46.390425" lon="14.433479">
        <ele>1014.7976599104</ele>
        <time>2011-04-23T16:31:30Z</time>
      </trkpt>
      <trkpt lat="46.390425" lon="14.433430">
        <ele>1015.7576482368</ele>
        <time>2011-04-23T16:31:27Z</time>
      </trkpt>
      <trkpt lat="46.390490" lon="14.433506">
        <ele>1015.2776540736</ele>
        <time>2011-04-23T16:31:23Z</time>
      </trkpt>
      <trkpt lat="46.390526" lon="14.433703">
        <ele>1018.1576190528</ele>
        <time>2011-04-23T16:31:12Z</time>
      </trkpt>
      <trkpt lat="46.390510" lon="14.433853">
        <ele>1019.6076014208</ele>
        <time>2011-04-23T16:31:00Z</time>
      </trkpt>
      <trkpt lat="46.390490" lon="14.434003">
        <ele>1021.5275780736</ele>
        <time>2011-04-23T16:30:48Z</time>
      </trkpt>
      <trkpt lat="46.390538" lon="14.434285">
        <ele>1024.4075430528</ele>
        <time>2011-04-23T16:30:33Z</time>
      </trkpt>
      <trkpt lat="46.390500" lon="14.434391">
        <ele>1025.3675313792</ele>
        <time>2011-04-23T16:30:23Z</time>
      </trkpt>
      <trkpt lat="46.390533" lon="14.434548">
        <ele>1027.2975079104</ele>
        <time>2011-04-23T16:30:14Z</time>
      </trkpt>
      <trkpt lat="46.390526" lon="14.434734">
        <ele>1028.7374904</ele>
        <time>2011-04-23T16:30:05Z</time>
      </trkpt>
      <trkpt lat="46.390510" lon="14.434819">
        <ele>1029.2174845632</ele>
        <time>2011-04-23T16:29:58Z</time>
      </trkpt>
      <trkpt lat="46.390484" lon="14.434851">
        <ele>1029.6974787264</ele>
        <time>2011-04-23T16:29:54Z</time>
      </trkpt>
      <trkpt lat="46.390467" lon="14.434879">
        <ele>1032.5774437056</ele>
        <time>2011-04-23T16:29:50Z</time>
      </trkpt>
      <trkpt lat="46.390463" lon="14.434891">
        <ele>1031.137461216</ele>
        <time>2011-04-23T16:29:49Z</time>
      </trkpt>
      <trkpt lat="46.390463" lon="14.434891">
        <ele>1027.7775020736</ele>
        <time>2011-04-23T16:29:47Z</time>
      </trkpt>
      <trkpt lat="46.390463" lon="14.434891">
        <ele>1033.0574378688</ele>
        <time>2011-04-23T16:29:46Z</time>
      </trkpt>
      <trkpt lat="46.390463" lon="14.434891">
        <ele>1025.3675313792</ele>
        <time>2011-04-23T16:29:46Z</time>
      </trkpt>
      <trkpt lat="46.390463" lon="14.434901">
        <ele>1031.137461216</ele>
        <time>2011-04-23T16:29:45Z</time>
      </trkpt>
      <trkpt lat="46.390371" lon="14.435042">
        <ele>1032.5774437056</ele>
        <time>2011-04-23T16:29:34Z</time>
      </trkpt>
      <trkpt lat="46.390365" lon="14.435058">
        <ele>1033.0574378688</ele>
        <time>2011-04-23T16:29:33Z</time>
      </trkpt>
      <trkpt lat="46.390323" lon="14.435148">
        <ele>1034.5074202368</ele>
        <time>2011-04-23T16:29:18Z</time>
      </trkpt>
      <trkpt lat="46.390291" lon="14.435227">
        <ele>1035.9474027264</ele>
        <time>2011-04-23T16:29:06Z</time>
      </trkpt>
      <trkpt lat="46.390307" lon="14.435306">
        <ele>1036.4273968896</ele>
        <time>2011-04-23T16:28:52Z</time>
      </trkpt>
      <trkpt lat="46.390302" lon="14.435459">
        <ele>1036.9073910528</ele>
        <time>2011-04-23T16:28:39Z</time>
      </trkpt>
      <trkpt lat="46.390296" lon="14.435468">
        <ele>1037.8673793792</ele>
        <time>2011-04-23T16:28:25Z</time>
      </trkpt>
      <trkpt lat="46.390291" lon="14.435468">
        <ele>1037.8673793792</ele>
        <time>2011-04-23T16:28:06Z</time>
      </trkpt>
      <trkpt lat="46.390328" lon="14.435376">
        <ele>1040.2673501952</ele>
        <time>2011-04-23T16:27:53Z</time>
      </trkpt>
      <trkpt lat="46.390355" lon="14.435330">
        <ele>1043.1573150528</ele>
        <time>2011-04-23T16:27:43Z</time>
      </trkpt>
      <trkpt lat="46.390441" lon="14.435291">
        <ele>1045.0772917056</ele>
        <time>2011-04-23T16:27:30Z</time>
      </trkpt>
      <trkpt lat="46.390538" lon="14.435294">
        <ele>1046.9972683584</ele>
        <time>2011-04-23T16:27:16Z</time>
      </trkpt>
      <trkpt lat="46.390667" lon="14.435266">
        <ele>1050.3672273792</ele>
        <time>2011-04-23T16:27:07Z</time>
      </trkpt>
      <trkpt lat="46.390789" lon="14.435118">
        <ele>1050.8472215424</ele>
        <time>2011-04-23T16:26:56Z</time>
      </trkpt>
      <trkpt lat="46.390854" lon="14.435043">
        <ele>1053.7271865216</ele>
        <time>2011-04-23T16:26:42Z</time>
      </trkpt>
      <trkpt lat="46.390908" lon="14.434936">
        <ele>1056.137157216</ele>
        <time>2011-04-23T16:26:29Z</time>
      </trkpt>
      <trkpt lat="46.391026" lon="14.434822">
        <ele>1059.0171221952</ele>
        <time>2011-04-23T16:26:14Z</time>
      </trkpt>
      <trkpt lat="46.390978" lon="14.434949">
        <ele>1059.9771105216</ele>
        <time>2011-04-23T16:26:05Z</time>
      </trkpt>
      <trkpt lat="46.390961" lon="14.434956">
        <ele>1060.937098848</ele>
        <time>2011-04-23T16:26:03Z</time>
      </trkpt>
      <trkpt lat="46.390924" lon="14.434993">
        <ele>1061.4170930112</ele>
        <time>2011-04-23T16:25:59Z</time>
      </trkpt>
      <trkpt lat="46.390886" lon="14.435037">
        <ele>1061.8970871744</ele>
        <time>2011-04-23T16:25:47Z</time>
      </trkpt>
      <trkpt lat="46.390875" lon="14.435157">
        <ele>1064.787052032</ele>
        <time>2011-04-23T16:25:31Z</time>
      </trkpt>
      <trkpt lat="46.390902" lon="14.435237">
        <ele>1065.2670461952</ele>
        <time>2011-04-23T16:25:20Z</time>
      </trkpt>
      <trkpt lat="46.390945" lon="14.435403">
        <ele>1068.1470111744</ele>
        <time>2011-04-23T16:25:09Z</time>
      </trkpt>
      <trkpt lat="46.390951" lon="14.435738">
        <ele>1070.5569818688</ele>
        <time>2011-04-23T16:24:56Z</time>
      </trkpt>
      <trkpt lat="46.390956" lon="14.436013">
        <ele>1072.4769585216</ele>
        <time>2011-04-23T16:24:45Z</time>
      </trkpt>
      <trkpt lat="46.390951" lon="14.436015">
        <ele>1072.4769585216</ele>
        <time>2011-04-23T16:24:45Z</time>
      </trkpt>
      <trkpt lat="46.391010" lon="14.436164">
        <ele>1075.836917664</ele>
        <time>2011-04-23T16:24:29Z</time>
      </trkpt>
      <trkpt lat="46.391037" lon="14.436293">
        <ele>1077.2769001536</ele>
        <time>2011-04-23T16:24:15Z</time>
      </trkpt>
      <trkpt lat="46.391004" lon="14.436330">
        <ele>1079.686870848</ele>
        <time>2011-04-23T16:24:03Z</time>
      </trkpt>
      <trkpt lat="46.391037" lon="14.436585">
        <ele>1082.086841664</ele>
        <time>2011-04-23T16:23:48Z</time>
      </trkpt>
      <trkpt lat="46.391010" lon="14.436796">
        <ele>1084.48681248</ele>
        <time>2011-04-23T16:23:35Z</time>
      </trkpt>
      <trkpt lat="46.391004" lon="14.436806">
        <ele>1085.936794848</ele>
        <time>2011-04-23T16:23:17Z</time>
      </trkpt>
      <trkpt lat="46.390951" lon="14.436950">
        <ele>1087.3767773376</ele>
        <time>2011-04-23T16:23:05Z</time>
      </trkpt>
      <trkpt lat="46.390935" lon="14.437079">
        <ele>1088.8167598272</ele>
        <time>2011-04-23T16:23:00Z</time>
      </trkpt>
      <trkpt lat="46.390918" lon="14.437279">
        <ele>1089.7767481536</ele>
        <time>2011-04-23T16:22:42Z</time>
      </trkpt>
      <trkpt lat="46.390913" lon="14.437314">
        <ele>1091.2167306432</ele>
        <time>2011-04-23T16:22:26Z</time>
      </trkpt>
      <trkpt lat="46.390913" lon="14.437314">
        <ele>1091.2167306432</ele>
        <time>2011-04-23T16:22:25Z</time>
      </trkpt>
      <trkpt lat="46.390913" lon="14.437323">
        <ele>1091.6967248064</ele>
        <time>2011-04-23T16:22:10Z</time>
      </trkpt>
      <trkpt lat="46.390924" lon="14.437429">
        <ele>1092.186718848</ele>
        <time>2011-04-23T16:21:54Z</time>
      </trkpt>
      <trkpt lat="46.390956" lon="14.437490">
        <ele>1093.1467071744</ele>
        <time>2011-04-23T16:21:50Z</time>
      </trkpt>
      <trkpt lat="46.390967" lon="14.437508">
        <ele>1093.6267013376</ele>
        <time>2011-04-23T16:21:48Z</time>
      </trkpt>
      <trkpt lat="46.391037" lon="14.437667">
        <ele>1096.98666048</ele>
        <time>2011-04-23T16:21:36Z</time>
      </trkpt>
      <trkpt lat="46.391090" lon="14.437697">
        <ele>1099.386631296</ele>
        <time>2011-04-23T16:21:24Z</time>
      </trkpt>
      <trkpt lat="46.391100" lon="14.437617">
        <ele>1101.3166078272</ele>
        <time>2011-04-23T16:21:16Z</time>
      </trkpt>
      <trkpt lat="46.391128" lon="14.437487">
        <ele>1102.2765961536</ele>
        <time>2011-04-23T16:21:09Z</time>
      </trkpt>
      <trkpt lat="46.391155" lon="14.437471">
        <ele>1104.1965728064</ele>
        <time>2011-04-23T16:21:01Z</time>
      </trkpt>
      <trkpt lat="46.391150" lon="14.437410">
        <ele>1106.5965436224</ele>
        <time>2011-04-23T16:20:47Z</time>
      </trkpt>
      <trkpt lat="46.391150" lon="14.437366">
        <ele>1107.086537664</ele>
        <time>2011-04-23T16:20:39Z</time>
      </trkpt>
      <trkpt lat="46.391176" lon="14.437303">
        <ele>1108.0465259904</ele>
        <time>2011-04-23T16:20:34Z</time>
      </trkpt>
      <trkpt lat="46.391176" lon="14.437267">
        <ele>1109.0065143168</ele>
        <time>2011-04-23T16:20:33Z</time>
      </trkpt>
      <trkpt lat="46.391193" lon="14.437162">
        <ele>1110.4464968064</ele>
        <time>2011-04-23T16:20:19Z</time>
      </trkpt>
      <trkpt lat="46.391229" lon="14.436985">
        <ele>1112.3664734592</ele>
        <time>2011-04-23T16:20:08Z</time>
      </trkpt>
      <trkpt lat="46.391268" lon="14.436961">
        <ele>1112.8464676224</ele>
        <time>2011-04-23T16:20:04Z</time>
      </trkpt>
      <trkpt lat="46.391277" lon="14.436941">
        <ele>1112.8464676224</ele>
        <time>2011-04-23T16:20:02Z</time>
      </trkpt>
      <trkpt lat="46.391423" lon="14.436878">
        <ele>1114.7764441536</ele>
        <time>2011-04-23T16:19:48Z</time>
      </trkpt>
      <trkpt lat="46.391455" lon="14.436863">
        <ele>1115.73643248</ele>
        <time>2011-04-23T16:19:45Z</time>
      </trkpt>
      <trkpt lat="46.391503" lon="14.436854">
        <ele>1116.2164266432</ele>
        <time>2011-04-23T16:19:32Z</time>
      </trkpt>
      <trkpt lat="46.391568" lon="14.436849">
        <ele>1117.6564091328</ele>
        <time>2011-04-23T16:19:22Z</time>
      </trkpt>
      <trkpt lat="46.391584" lon="14.436835">
        <ele>1117.6564091328</ele>
        <time>2011-04-23T16:19:14Z</time>
      </trkpt>
      <trkpt lat="46.391637" lon="14.436811">
        <ele>1119.0963916224</ele>
        <time>2011-04-23T16:19:06Z</time>
      </trkpt>
      <trkpt lat="46.391733" lon="14.436849">
        <ele>1121.0163682752</ele>
        <time>2011-04-23T16:18:55Z</time>
      </trkpt>
      <trkpt lat="46.391842" lon="14.436892">
        <ele>1122.4663506432</ele>
        <time>2011-04-23T16:18:43Z</time>
      </trkpt>
      <trkpt lat="46.392023" lon="14.436999">
        <ele>1124.386327296</ele>
        <time>2011-04-23T16:18:31Z</time>
      </trkpt>
      <trkpt lat="46.392082" lon="14.437040">
        <ele>1125.3463156224</ele>
        <time>2011-04-23T16:18:27Z</time>
      </trkpt>
      <trkpt lat="46.392265" lon="14.437172">
        <ele>1125.8263097856</ele>
        <time>2011-04-23T16:18:16Z</time>
      </trkpt>
      <trkpt lat="46.392330" lon="14.437248">
        <ele>1127.7462864384</ele>
        <time>2011-04-23T16:18:00Z</time>
      </trkpt>
      <trkpt lat="46.392448" lon="14.437390">
        <ele>1130.636251296</ele>
        <time>2011-04-23T16:17:45Z</time>
      </trkpt>
      <trkpt lat="46.392603" lon="14.437527">
        <ele>1132.5562279488</ele>
        <time>2011-04-23T16:17:30Z</time>
      </trkpt>
      <trkpt lat="46.392662" lon="14.437639">
        <ele>1134.4762046016</ele>
        <time>2011-04-23T16:17:14Z</time>
      </trkpt>
      <trkpt lat="46.392672" lon="14.437661">
        <ele>1134.4762046016</ele>
        <time>2011-04-23T16:16:48Z</time>
      </trkpt>
      <trkpt lat="46.392672" lon="14.437661">
        <ele>1135.436192928</ele>
        <time>2011-04-23T16:16:16Z</time>
      </trkpt>
      <trkpt lat="46.392667" lon="14.437654">
        <ele>1135.436192928</ele>
        <time>2011-04-23T16:15:49Z</time>
      </trkpt>
      <trkpt lat="46.392775" lon="14.437725">
        <ele>1136.886175296</ele>
        <time>2011-04-23T16:15:36Z</time>
      </trkpt>
      <trkpt lat="46.392957" lon="14.437867">
        <ele>1138.3261577856</ele>
        <time>2011-04-23T16:15:21Z</time>
      </trkpt>
      <trkpt lat="46.393075" lon="14.437936">
        <ele>1140.2461344384</ele>
        <time>2011-04-23T16:15:07Z</time>
      </trkpt>
      <trkpt lat="46.393101" lon="14.437968">
        <ele>1140.7261286016</ele>
        <time>2011-04-23T16:15:05Z</time>
      </trkpt>
      <trkpt lat="46.393112" lon="14.437981">
        <ele>1140.7261286016</ele>
        <time>2011-04-23T16:15:03Z</time>
      </trkpt>
      <trkpt lat="46.393140" lon="14.438014">
        <ele>1141.686116928</ele>
        <time>2011-04-23T16:14:47Z</time>
      </trkpt>
      <trkpt lat="46.393236" lon="14.438040">
        <ele>1143.1260994176</ele>
        <time>2011-04-23T16:14:35Z</time>
      </trkpt>
      <trkpt lat="46.393279" lon="14.438101">
        <ele>1143.1260994176</ele>
        <time>2011-04-23T16:14:32Z</time>
      </trkpt>
      <trkpt lat="46.393279" lon="14.438101">
        <ele>1144.5760817856</ele>
        <time>2011-04-23T16:14:24Z</time>
      </trkpt>
      <trkpt lat="46.393279" lon="14.438101">
        <ele>1140.2461344384</ele>
        <time>2011-04-23T16:14:24Z</time>
      </trkpt>
      <trkpt lat="46.393279" lon="14.438101">
        <ele>1143.6160934592</ele>
        <time>2011-04-23T16:14:05Z</time>
      </trkpt>
      <trkpt lat="46.393375" lon="14.438134">
        <ele>1145.0560759488</ele>
        <time>2011-04-23T16:13:49Z</time>
      </trkpt>
      <trkpt lat="46.393402" lon="14.438147">
        <ele>1145.536070112</ele>
        <time>2011-04-23T16:13:46Z</time>
      </trkpt>
      <trkpt lat="46.393434" lon="14.438164">
        <ele>1146.0160642752</ele>
        <time>2011-04-23T16:13:41Z</time>
      </trkpt>
      <trkpt lat="46.393477" lon="14.438184">
        <ele>1147.936040928</ele>
        <time>2011-04-23T16:13:34Z</time>
      </trkpt>
      <trkpt lat="46.393467" lon="14.438215">
        <ele>1147.936040928</ele>
        <time>2011-04-23T16:13:31Z</time>
      </trkpt>
      <trkpt lat="46.393477" lon="14.438229">
        <ele>1148.4160350912</ele>
        <time>2011-04-23T16:13:26Z</time>
      </trkpt>
      <trkpt lat="46.393461" lon="14.438188">
        <ele>1147.4560467648</ele>
        <time>2011-04-23T16:13:02Z</time>
      </trkpt>
      <trkpt lat="46.393434" lon="14.438168">
        <ele>1147.936040928</ele>
        <time>2011-04-23T16:12:31Z</time>
      </trkpt>
      <trkpt lat="46.393434" lon="14.438160">
        <ele>1147.936040928</ele>
        <time>2011-04-23T16:12:00Z</time>
      </trkpt>
      <trkpt lat="46.393434" lon="14.438160">
        <ele>1147.936040928</ele>
        <time>2011-04-23T16:11:31Z</time>
      </trkpt>
      <trkpt lat="46.393424" lon="14.438153">
        <ele>1146.4960584384</ele>
        <time>2011-04-23T16:11:18Z</time>
      </trkpt>
      <trkpt lat="46.393424" lon="14.438153">
        <ele>1150.336011744</ele>
        <time>2011-04-23T16:11:10Z</time>
      </trkpt>
      <trkpt lat="46.393418" lon="14.438154">
        <ele>1149.3760234176</ele>
        <time>2011-04-23T16:11:04Z</time>
      </trkpt>
      <trkpt lat="46.393418" lon="14.438154">
        <ele>1145.536070112</ele>
        <time>2011-04-23T16:11:03Z</time>
      </trkpt>
      <trkpt lat="46.393418" lon="14.438154">
        <ele>1146.0160642752</ele>
        <time>2011-04-23T16:11:02Z</time>
      </trkpt>
      <trkpt lat="46.393418" lon="14.438154">
        <ele>1148.8960292544</ele>
        <time>2011-04-23T16:10:57Z</time>
      </trkpt>
      <trkpt lat="46.393418" lon="14.438154">
        <ele>1150.336011744</ele>
        <time>2011-04-23T16:10:56Z</time>
      </trkpt>
      <trkpt lat="46.393418" lon="14.438154">
        <ele>1147.4560467648</ele>
        <time>2011-04-23T16:10:35Z</time>
      </trkpt>
      <trkpt lat="46.393418" lon="14.438154">
        <ele>1154.185964928</ele>
        <time>2011-04-23T16:10:33Z</time>
      </trkpt>
      <trkpt lat="46.393418" lon="14.438154">
        <ele>1145.0560759488</ele>
        <time>2011-04-23T16:10:33Z</time>
      </trkpt>
      <trkpt lat="46.393418" lon="14.438154">
        <ele>1145.0560759488</ele>
        <time>2011-04-23T16:10:32Z</time>
      </trkpt>
      <trkpt lat="46.393413" lon="14.438147">
        <ele>1148.8960292544</ele>
        <time>2011-04-23T16:10:22Z</time>
      </trkpt>
      <trkpt lat="46.393402" lon="14.438125">
        <ele>1148.4160350912</ele>
        <time>2011-04-23T16:09:55Z</time>
      </trkpt>
      <trkpt lat="46.393402" lon="14.438125">
        <ele>1147.936040928</ele>
        <time>2011-04-23T16:09:23Z</time>
      </trkpt>
      <trkpt lat="46.393402" lon="14.438115">
        <ele>1147.936040928</ele>
        <time>2011-04-23T16:08:49Z</time>
      </trkpt>
      <trkpt lat="46.393402" lon="14.438101">
        <ele>1147.936040928</ele>
        <time>2011-04-23T16:08:21Z</time>
      </trkpt>
      <trkpt lat="46.393402" lon="14.438101">
        <ele>1148.4160350912</ele>
        <time>2011-04-23T16:07:47Z</time>
      </trkpt>
      <trkpt lat="46.393402" lon="14.438102">
        <ele>1148.8960292544</ele>
        <time>2011-04-23T16:07:21Z</time>
      </trkpt>
      <trkpt lat="46.393413" lon="14.438102">
        <ele>1148.8960292544</ele>
        <time>2011-04-23T16:07:12Z</time>
      </trkpt>
      <trkpt lat="46.393413" lon="14.438102">
        <ele>1148.4160350912</ele>
        <time>2011-04-23T16:06:45Z</time>
      </trkpt>
      <trkpt lat="46.393413" lon="14.438104">
        <ele>1148.8960292544</ele>
        <time>2011-04-23T16:06:18Z</time>
      </trkpt>
      <trkpt lat="46.393413" lon="14.438102">
        <ele>1149.3760234176</ele>
        <time>2011-04-23T16:05:42Z</time>
      </trkpt>
      <trkpt lat="46.393413" lon="14.438102">
        <ele>1149.8560175808</ele>
        <time>2011-04-23T16:05:09Z</time>
      </trkpt>
      <trkpt lat="46.393402" lon="14.438099">
        <ele>1148.8960292544</ele>
        <time>2011-04-23T16:04:34Z</time>
      </trkpt>
      <trkpt lat="46.393397" lon="14.438092">
        <ele>1149.8560175808</ele>
        <time>2011-04-23T16:04:07Z</time>
      </trkpt>
      <trkpt lat="46.393402" lon="14.438092">
        <ele>1149.8560175808</ele>
        <time>2011-04-23T16:03:40Z</time>
      </trkpt>
      <trkpt lat="46.393402" lon="14.438092">
        <ele>1149.3760234176</ele>
        <time>2011-04-23T16:03:05Z</time>
      </trkpt>
      <trkpt lat="46.393402" lon="14.438094">
        <ele>1149.8560175808</ele>
        <time>2011-04-23T16:02:27Z</time>
      </trkpt>
      <trkpt lat="46.393402" lon="14.438086">
        <ele>1150.336011744</ele>
        <time>2011-04-23T16:01:56Z</time>
      </trkpt>
      <trkpt lat="46.393402" lon="14.438086">
        <ele>1150.336011744</ele>
        <time>2011-04-23T16:01:24Z</time>
      </trkpt>
      <trkpt lat="46.393413" lon="14.438085">
        <ele>1150.336011744</ele>
        <time>2011-04-23T16:00:51Z</time>
      </trkpt>
      <trkpt lat="46.393413" lon="14.438086">
        <ele>1150.336011744</ele>
        <time>2011-04-23T16:00:20Z</time>
      </trkpt>
      <trkpt lat="46.393413" lon="14.438086">
        <ele>1150.336011744</ele>
        <time>2011-04-23T15:59:48Z</time>
      </trkpt>
      <trkpt lat="46.393413" lon="14.438083">
        <ele>1151.3059999488</ele>
        <time>2011-04-23T15:59:18Z</time>
      </trkpt>
      <trkpt lat="46.393504" lon="14.438125">
        <ele>1152.2659882752</ele>
        <time>2011-04-23T15:59:01Z</time>
      </trkpt>
      <trkpt lat="46.393526" lon="14.438166">
        <ele>1152.2659882752</ele>
        <time>2011-04-23T15:58:55Z</time>
      </trkpt>
      <trkpt lat="46.393563" lon="14.438200">
        <ele>1152.2659882752</ele>
        <time>2011-04-23T15:58:40Z</time>
      </trkpt>
      <trkpt lat="46.393596" lon="14.438215">
        <ele>1153.2259766016</ele>
        <time>2011-04-23T15:58:38Z</time>
      </trkpt>
      <trkpt lat="46.393606" lon="14.438224">
        <ele>1153.7059707648</ele>
        <time>2011-04-23T15:58:36Z</time>
      </trkpt>
      <trkpt lat="46.393616" lon="14.438236">
        <ele>1153.2259766016</ele>
        <time>2011-04-23T15:58:24Z</time>
      </trkpt>
      <trkpt lat="46.393659" lon="14.438296">
        <ele>1155.1459532544</ele>
        <time>2011-04-23T15:58:17Z</time>
      </trkpt>
      <trkpt lat="46.393655" lon="14.438346">
        <ele>1155.1459532544</ele>
        <time>2011-04-23T15:58:15Z</time>
      </trkpt>
      <trkpt lat="46.393665" lon="14.438423">
        <ele>1155.6259474176</ele>
        <time>2011-04-23T15:58:09Z</time>
      </trkpt>
      <trkpt lat="46.393665" lon="14.438484">
        <ele>1157.5459240704</ele>
        <time>2011-04-23T15:58:01Z</time>
      </trkpt>
      <trkpt lat="46.393682" lon="14.438549">
        <ele>1158.035918112</ele>
        <time>2011-04-23T15:57:56Z</time>
      </trkpt>
      <trkpt lat="46.393687" lon="14.438564">
        <ele>1158.5159122752</ele>
        <time>2011-04-23T15:57:53Z</time>
      </trkpt>
      <trkpt lat="46.393687" lon="14.438592">
        <ele>1159.4759006016</ele>
        <time>2011-04-23T15:57:49Z</time>
      </trkpt>
      <trkpt lat="46.393741" lon="14.438699">
        <ele>1162.3558655808</ele>
        <time>2011-04-23T15:57:37Z</time>
      </trkpt>
      <trkpt lat="46.393714" lon="14.438751">
        <ele>1162.3558655808</ele>
        <time>2011-04-23T15:57:34Z</time>
      </trkpt>
      <trkpt lat="46.393725" lon="14.438802">
        <ele>1162.835859744</ele>
        <time>2011-04-23T15:57:32Z</time>
      </trkpt>
      <trkpt lat="46.393734" lon="14.438815">
        <ele>1163.3158539072</ele>
        <time>2011-04-23T15:57:22Z</time>
      </trkpt>
      <trkpt lat="46.393800" lon="14.438856">
        <ele>1163.7958480704</ele>
        <time>2011-04-23T15:57:17Z</time>
      </trkpt>
      <trkpt lat="46.393852" lon="14.438915">
        <ele>1166.2058187648</ele>
        <time>2011-04-23T15:57:07Z</time>
      </trkpt>
      <trkpt lat="46.393859" lon="14.438936">
        <ele>1166.685812928</ele>
        <time>2011-04-23T15:56:54Z</time>
      </trkpt>
      <trkpt lat="46.393843" lon="14.439008">
        <ele>1168.1257954176</ele>
        <time>2011-04-23T15:56:47Z</time>
      </trkpt>
      <trkpt lat="46.393843" lon="14.439021">
        <ele>1169.085783744</ele>
        <time>2011-04-23T15:56:43Z</time>
      </trkpt>
      <trkpt lat="46.393804" lon="14.439043">
        <ele>1170.5257662336</ele>
        <time>2011-04-23T15:56:32Z</time>
      </trkpt>
      <trkpt lat="46.393800" lon="14.439119">
        <ele>1171.9657487232</ele>
        <time>2011-04-23T15:56:25Z</time>
      </trkpt>
      <trkpt lat="46.393843" lon="14.439183">
        <ele>1173.8957252544</ele>
        <time>2011-04-23T15:56:19Z</time>
      </trkpt>
      <trkpt lat="46.393906" lon="14.439246">
        <ele>1175.8157019072</ele>
        <time>2011-04-23T15:56:05Z</time>
      </trkpt>
      <trkpt lat="46.393906" lon="14.439254">
        <ele>1176.7756902336</ele>
        <time>2011-04-23T15:56:00Z</time>
      </trkpt>
      <trkpt lat="46.393890" lon="14.439422">
        <ele>1178.6956668864</ele>
        <time>2011-04-23T15:55:49Z</time>
      </trkpt>
      <trkpt lat="46.393874" lon="14.439465">
        <ele>1180.6256434176</ele>
        <time>2011-04-23T15:55:34Z</time>
      </trkpt>
      <trkpt lat="46.393869" lon="14.439484">
        <ele>1182.5456200704</ele>
        <time>2011-04-23T15:55:15Z</time>
      </trkpt>
      <trkpt lat="46.393847" lon="14.439514">
        <ele>1185.4255850496</ele>
        <time>2011-04-23T15:55:07Z</time>
      </trkpt>
      <trkpt lat="46.393945" lon="14.439501">
        <ele>1186.8655675392</ele>
        <time>2011-04-23T15:54:55Z</time>
      </trkpt>
      <trkpt lat="46.394030" lon="14.439478">
        <ele>1189.2755382336</ele>
        <time>2011-04-23T15:54:43Z</time>
      </trkpt>
      <trkpt lat="46.394030" lon="14.439360">
        <ele>1189.7555323968</ele>
        <time>2011-04-23T15:54:31Z</time>
      </trkpt>
      <trkpt lat="46.394057" lon="14.439316">
        <ele>1190.23552656</ele>
        <time>2011-04-23T15:54:27Z</time>
      </trkpt>
      <trkpt lat="46.394078" lon="14.439317">
        <ele>1192.1555032128</ele>
        <time>2011-04-23T15:54:24Z</time>
      </trkpt>
      <trkpt lat="46.394116" lon="14.439277">
        <ele>1192.1555032128</ele>
        <time>2011-04-23T15:54:17Z</time>
      </trkpt>
      <trkpt lat="46.394110" lon="14.439246">
        <ele>1193.5954857024</ele>
        <time>2011-04-23T15:54:09Z</time>
      </trkpt>
      <trkpt lat="46.394229" lon="14.439181">
        <ele>1196.0054563968</ele>
        <time>2011-04-23T15:53:56Z</time>
      </trkpt>
      <trkpt lat="46.394288" lon="14.439147">
        <ele>1196.9654447232</ele>
        <time>2011-04-23T15:53:50Z</time>
      </trkpt>
      <trkpt lat="46.394324" lon="14.439092">
        <ele>1197.9254330496</ele>
        <time>2011-04-23T15:53:46Z</time>
      </trkpt>
      <trkpt lat="46.394363" lon="14.439104">
        <ele>1199.3654155392</ele>
        <time>2011-04-23T15:53:37Z</time>
      </trkpt>
      <trkpt lat="46.394464" lon="14.439047">
        <ele>1201.7753862336</ele>
        <time>2011-04-23T15:53:24Z</time>
      </trkpt>
      <trkpt lat="46.394550" lon="14.438978">
        <ele>1203.6953628864</ele>
        <time>2011-04-23T15:53:18Z</time>
      </trkpt>
      <trkpt lat="46.394578" lon="14.438987">
        <ele>1203.6953628864</ele>
        <time>2011-04-23T15:53:15Z</time>
      </trkpt>
      <trkpt lat="46.394690" lon="14.438923">
        <ele>1205.6153395392</ele>
        <time>2011-04-23T15:53:07Z</time>
      </trkpt>
      <trkpt lat="46.394754" lon="14.438923">
        <ele>1205.6153395392</ele>
        <time>2011-04-23T15:53:02Z</time>
      </trkpt>
      <trkpt lat="46.394867" lon="14.439029">
        <ele>1208.4953045184</ele>
        <time>2011-04-23T15:52:53Z</time>
      </trkpt>
      <trkpt lat="46.394882" lon="14.439119">
        <ele>1210.9052752128</ele>
        <time>2011-04-23T15:52:44Z</time>
      </trkpt>
      <trkpt lat="46.394898" lon="14.439147">
        <ele>1210.9052752128</ele>
        <time>2011-04-23T15:52:43Z</time>
      </trkpt>
      <trkpt lat="46.394931" lon="14.439278">
        <ele>1213.3052460288</ele>
        <time>2011-04-23T15:52:21Z</time>
      </trkpt>
      <trkpt lat="46.394925" lon="14.439366">
        <ele>1216.1952108864</ele>
        <time>2011-04-23T15:52:08Z</time>
      </trkpt>
      <trkpt lat="46.394948" lon="14.439470">
        <ele>1218.5951817024</ele>
        <time>2011-04-23T15:51:55Z</time>
      </trkpt>
      <trkpt lat="46.394980" lon="14.439654">
        <ele>1221.4751466816</ele>
        <time>2011-04-23T15:51:43Z</time>
      </trkpt>
      <trkpt lat="46.395011" lon="14.439772">
        <ele>1222.9151291712</ele>
        <time>2011-04-23T15:51:31Z</time>
      </trkpt>
      <trkpt lat="46.395050" lon="14.439871">
        <ele>1224.8451057024</ele>
        <time>2011-04-23T15:51:20Z</time>
      </trkpt>
      <trkpt lat="46.395086" lon="14.439908">
        <ele>1224.8451057024</ele>
        <time>2011-04-23T15:51:00Z</time>
      </trkpt>
      <trkpt lat="46.395093" lon="14.439925">
        <ele>1224.8451057024</ele>
        <time>2011-04-23T15:50:44Z</time>
      </trkpt>
      <trkpt lat="46.395129" lon="14.440013">
        <ele>1226.285088192</ele>
        <time>2011-04-23T15:50:33Z</time>
      </trkpt>
      <trkpt lat="46.395247" lon="14.439965">
        <ele>1228.685059008</ele>
        <time>2011-04-23T15:50:20Z</time>
      </trkpt>
      <trkpt lat="46.395253" lon="14.439933">
        <ele>1230.6050356608</ele>
        <time>2011-04-23T15:50:17Z</time>
      </trkpt>
      <trkpt lat="46.395371" lon="14.439807">
        <ele>1231.5750238656</ele>
        <time>2011-04-23T15:50:05Z</time>
      </trkpt>
      <trkpt lat="46.395403" lon="14.439784">
        <ele>1233.0150063552</ele>
        <time>2011-04-23T15:50:02Z</time>
      </trkpt>
      <trkpt lat="46.395441" lon="14.439740">
        <ele>1233.0150063552</ele>
        <time>2011-04-23T15:49:55Z</time>
      </trkpt>
      <trkpt lat="46.395565" lon="14.439723">
        <ele>1234.934983008</ele>
        <time>2011-04-23T15:49:40Z</time>
      </trkpt>
      <trkpt lat="46.395687" lon="14.439886">
        <ele>1237.334953824</ele>
        <time>2011-04-23T15:49:28Z</time>
      </trkpt>
      <trkpt lat="46.395742" lon="14.439981">
        <ele>1239.7449245184</ele>
        <time>2011-04-23T15:49:20Z</time>
      </trkpt>
      <trkpt lat="46.395742" lon="14.440013">
        <ele>1240.2249186816</ele>
        <time>2011-04-23T15:49:15Z</time>
      </trkpt>
      <trkpt lat="46.395801" lon="14.440099">
        <ele>1241.184907008</ele>
        <time>2011-04-23T15:49:03Z</time>
      </trkpt>
      <trkpt lat="46.395816" lon="14.440299">
        <ele>1243.1048836608</ele>
        <time>2011-04-23T15:48:52Z</time>
      </trkpt>
      <trkpt lat="46.395827" lon="14.440328">
        <ele>1245.9948485184</ele>
        <time>2011-04-23T15:48:36Z</time>
      </trkpt>
      <trkpt lat="46.395880" lon="14.440436">
        <ele>1248.3948193344</ele>
        <time>2011-04-23T15:48:23Z</time>
      </trkpt>
      <trkpt lat="46.395897" lon="14.440453">
        <ele>1250.7947901504</ele>
        <time>2011-04-23T15:48:07Z</time>
      </trkpt>
      <trkpt lat="46.395961" lon="14.440456">
        <ele>1252.23477264</ele>
        <time>2011-04-23T15:47:51Z</time>
      </trkpt>
      <trkpt lat="46.395956" lon="14.440497">
        <ele>1253.2047608448</ele>
        <time>2011-04-23T15:47:44Z</time>
      </trkpt>
      <trkpt lat="46.395988" lon="14.440528">
        <ele>1257.0447141504</ele>
        <time>2011-04-23T15:47:31Z</time>
      </trkpt>
      <trkpt lat="46.395988" lon="14.440497">
        <ele>1258.0047024768</ele>
        <time>2011-04-23T15:47:23Z</time>
      </trkpt>
      <trkpt lat="46.395999" lon="14.440447">
        <ele>1259.9246791296</ele>
        <time>2011-04-23T15:47:05Z</time>
      </trkpt>
      <trkpt lat="46.396042" lon="14.440377">
        <ele>1261.8546556608</ele>
        <time>2011-04-23T15:46:50Z</time>
      </trkpt>
      <trkpt lat="46.396112" lon="14.440359">
        <ele>1264.73462064</ele>
        <time>2011-04-23T15:46:37Z</time>
      </trkpt>
      <trkpt lat="46.396128" lon="14.440303">
        <ele>1265.6946089664</ele>
        <time>2011-04-23T15:46:17Z</time>
      </trkpt>
      <trkpt lat="46.396175" lon="14.440299">
        <ele>1268.1045796608</ele>
        <time>2011-04-23T15:46:02Z</time>
      </trkpt>
      <trkpt lat="46.396250" lon="14.440327">
        <ele>1270.5045504768</ele>
        <time>2011-04-23T15:45:48Z</time>
      </trkpt>
      <trkpt lat="46.396277" lon="14.440333">
        <ele>1271.4645388032</ele>
        <time>2011-04-23T15:45:47Z</time>
      </trkpt>
      <trkpt lat="46.396411" lon="14.440389">
        <ele>1273.8645096192</ele>
        <time>2011-04-23T15:45:32Z</time>
      </trkpt>
      <trkpt lat="46.396411" lon="14.440389">
        <ele>1272.4245271296</ele>
        <time>2011-04-23T15:45:28Z</time>
      </trkpt>
      <trkpt lat="46.396438" lon="14.440401">
        <ele>1273.384515456</ele>
        <time>2011-04-23T15:45:16Z</time>
      </trkpt>
      <trkpt lat="46.396449" lon="14.440367">
        <ele>1274.834497824</ele>
        <time>2011-04-23T15:45:08Z</time>
      </trkpt>
      <trkpt lat="46.396524" lon="14.440373">
        <ele>1276.2744803136</ele>
        <time>2011-04-23T15:45:00Z</time>
      </trkpt>
      <trkpt lat="46.396540" lon="14.440381">
        <ele>1278.1944569664</ele>
        <time>2011-04-23T15:44:42Z</time>
      </trkpt>
      <trkpt lat="46.396610" lon="14.440397">
        <ele>1279.634439456</ele>
        <time>2011-04-23T15:44:31Z</time>
      </trkpt>
      <trkpt lat="46.396707" lon="14.440434">
        <ele>1282.5244043136</ele>
        <time>2011-04-23T15:44:16Z</time>
      </trkpt>
      <trkpt lat="46.396777" lon="14.440472">
        <ele>1284.9243751296</ele>
        <time>2011-04-23T15:44:06Z</time>
      </trkpt>
      <trkpt lat="46.396804" lon="14.440484">
        <ele>1285.884363456</ele>
        <time>2011-04-23T15:44:03Z</time>
      </trkpt>
      <trkpt lat="46.396933" lon="14.440563">
        <ele>1289.73431664</ele>
        <time>2011-04-23T15:43:48Z</time>
      </trkpt>
      <trkpt lat="46.397034" lon="14.440611">
        <ele>1292.6142816192</ele>
        <time>2011-04-23T15:43:36Z</time>
      </trkpt>
      <trkpt lat="46.397039" lon="14.440615">
        <ele>1292.134287456</ele>
        <time>2011-04-23T15:43:35Z</time>
      </trkpt>
      <trkpt lat="46.397152" lon="14.440627">
        <ele>1295.4942465984</ele>
        <time>2011-04-23T15:43:26Z</time>
      </trkpt>
      <trkpt lat="46.397206" lon="14.440621">
        <ele>1297.4242231296</ele>
        <time>2011-04-23T15:43:25Z</time>
      </trkpt>
      <trkpt lat="46.397281" lon="14.440551">
        <ele>1298.8642056192</ele>
        <time>2011-04-23T15:43:02Z</time>
      </trkpt>
      <trkpt lat="46.397329" lon="14.440565">
        <ele>1301.7441705984</ele>
        <time>2011-04-23T15:42:50Z</time>
      </trkpt>
      <trkpt lat="46.397437" lon="14.440568">
        <ele>1304.1541412928</ele>
        <time>2011-04-23T15:42:38Z</time>
      </trkpt>
      <trkpt lat="46.397437" lon="14.440568">
        <ele>1305.1141296192</ele>
        <time>2011-04-23T15:42:35Z</time>
      </trkpt>
      <trkpt lat="46.397464" lon="14.440565">
        <ele>1307.5141004352</ele>
        <time>2011-04-23T15:42:19Z</time>
      </trkpt>
      <trkpt lat="46.397527" lon="14.440587">
        <ele>1310.3940654144</ele>
        <time>2011-04-23T15:42:08Z</time>
      </trkpt>
      <trkpt lat="46.397591" lon="14.440642">
        <ele>1313.7640244352</ele>
        <time>2011-04-23T15:41:57Z</time>
      </trkpt>
      <trkpt lat="46.397582" lon="14.440700">
        <ele>1316.6439894144</ele>
        <time>2011-04-23T15:41:45Z</time>
      </trkpt>
      <trkpt lat="46.397625" lon="14.440799">
        <ele>1319.0539601088</ele>
        <time>2011-04-23T15:41:33Z</time>
      </trkpt>
      <trkpt lat="46.397796" lon="14.440861">
        <ele>1320.0139484352</ele>
        <time>2011-04-23T15:41:18Z</time>
      </trkpt>
      <trkpt lat="46.397801" lon="14.440858">
        <ele>1319.533954272</ele>
        <time>2011-04-23T15:40:48Z</time>
      </trkpt>
      <trkpt lat="46.397801" lon="14.440858">
        <ele>1322.8939134144</ele>
        <time>2011-04-23T15:40:47Z</time>
      </trkpt>
      <trkpt lat="46.397801" lon="14.440858">
        <ele>1319.533954272</ele>
        <time>2011-04-23T15:40:35Z</time>
      </trkpt>
      <trkpt lat="46.397812" lon="14.440849">
        <ele>1320.9739367616</ele>
        <time>2011-04-23T15:40:32Z</time>
      </trkpt>
      <trkpt lat="46.397828" lon="14.440833">
        <ele>1322.4139192512</ele>
        <time>2011-04-23T15:40:30Z</time>
      </trkpt>
      <trkpt lat="46.397828" lon="14.440838">
        <ele>1322.8939134144</ele>
        <time>2011-04-23T15:40:16Z</time>
      </trkpt>
      <trkpt lat="46.397866" lon="14.440833">
        <ele>1323.3739075776</ele>
        <time>2011-04-23T15:40:03Z</time>
      </trkpt>
      <trkpt lat="46.397941" lon="14.440873">
        <ele>1325.2938842304</ele>
        <time>2011-04-23T15:39:56Z</time>
      </trkpt>
      <trkpt lat="46.398047" lon="14.440921">
        <ele>1326.7438665984</ele>
        <time>2011-04-23T15:39:41Z</time>
      </trkpt>
      <trkpt lat="46.398129" lon="14.440942">
        <ele>1330.583819904</ele>
        <time>2011-04-23T15:39:33Z</time>
      </trkpt>
      <trkpt lat="46.398188" lon="14.440900">
        <ele>1329.6238315776</ele>
        <time>2011-04-23T15:39:18Z</time>
      </trkpt>
      <trkpt lat="46.398224" lon="14.440874">
        <ele>1331.0638140672</ele>
        <time>2011-04-23T15:38:54Z</time>
      </trkpt>
      <trkpt lat="46.398241" lon="14.440898">
        <ele>1331.5438082304</ele>
        <time>2011-04-23T15:38:38Z</time>
      </trkpt>
      <trkpt lat="46.398246" lon="14.440878">
        <ele>1332.0238023936</ele>
        <time>2011-04-23T15:38:24Z</time>
      </trkpt>
      <trkpt lat="46.398278" lon="14.440787">
        <ele>1332.5037965568</ele>
        <time>2011-04-23T15:38:09Z</time>
      </trkpt>
      <trkpt lat="46.398376" lon="14.440575">
        <ele>1333.4737847616</ele>
        <time>2011-04-23T15:37:57Z</time>
      </trkpt>
      <trkpt lat="46.398466" lon="14.440422">
        <ele>1335.3937614144</ele>
        <time>2011-04-23T15:37:42Z</time>
      </trkpt>
      <trkpt lat="46.398531" lon="14.440197">
        <ele>1334.9137672512</ele>
        <time>2011-04-23T15:37:26Z</time>
      </trkpt>
      <trkpt lat="46.398585" lon="14.440010">
        <ele>1336.3537497408</ele>
        <time>2011-04-23T15:37:12Z</time>
      </trkpt>
      <trkpt lat="46.398617" lon="14.439911">
        <ele>1337.3137380672</ele>
        <time>2011-04-23T15:36:59Z</time>
      </trkpt>
      <trkpt lat="46.398628" lon="14.439867">
        <ele>1337.7937322304</ele>
        <time>2011-04-23T15:36:44Z</time>
      </trkpt>
      <trkpt lat="46.398676" lon="14.439766">
        <ele>1337.7937322304</ele>
        <time>2011-04-23T15:36:32Z</time>
      </trkpt>
      <trkpt lat="46.398723" lon="14.439602">
        <ele>1340.2037029248</ele>
        <time>2011-04-23T15:36:20Z</time>
      </trkpt>
      <trkpt lat="46.398782" lon="14.439414">
        <ele>1342.6036737408</ele>
        <time>2011-04-23T15:36:06Z</time>
      </trkpt>
      <trkpt lat="46.398825" lon="14.439277">
        <ele>1343.083667904</ele>
        <time>2011-04-23T15:36:00Z</time>
      </trkpt>
      <trkpt lat="46.398848" lon="14.439175">
        <ele>1344.0436562304</ele>
        <time>2011-04-23T15:35:43Z</time>
      </trkpt>
      <trkpt lat="46.398848" lon="14.439175">
        <ele>1343.083667904</ele>
        <time>2011-04-23T15:35:42Z</time>
      </trkpt>
      <trkpt lat="46.398848" lon="14.439175">
        <ele>1347.4136152512</ele>
        <time>2011-04-23T15:35:42Z</time>
      </trkpt>
      <trkpt lat="46.398848" lon="14.439175">
        <ele>1347.4136152512</ele>
        <time>2011-04-23T15:35:41Z</time>
      </trkpt>
      <trkpt lat="46.398891" lon="14.439062">
        <ele>1344.5236503936</ele>
        <time>2011-04-23T15:35:27Z</time>
      </trkpt>
      <trkpt lat="46.398891" lon="14.439021">
        <ele>1345.9636328832</ele>
        <time>2011-04-23T15:35:19Z</time>
      </trkpt>
      <trkpt lat="46.398900" lon="14.438874">
        <ele>1345.9636328832</ele>
        <time>2011-04-23T15:35:12Z</time>
      </trkpt>
      <trkpt lat="46.398911" lon="14.438777">
        <ele>1346.4436270464</ele>
        <time>2011-04-23T15:35:06Z</time>
      </trkpt>
      <trkpt lat="46.399024" lon="14.438503">
        <ele>1349.8135860672</ele>
        <time>2011-04-23T15:34:52Z</time>
      </trkpt>
      <trkpt lat="46.399051" lon="14.438330">
        <ele>1352.6935510464</ele>
        <time>2011-04-23T15:34:40Z</time>
      </trkpt>
      <trkpt lat="46.399078" lon="14.438156">
        <ele>1355.1035217408</ele>
        <time>2011-04-23T15:34:26Z</time>
      </trkpt>
      <trkpt lat="46.399089" lon="14.438115">
        <ele>1355.1035217408</ele>
        <time>2011-04-23T15:34:25Z</time>
      </trkpt>
      <trkpt lat="46.399126" lon="14.437986">
        <ele>1357.5034925568</ele>
        <time>2011-04-23T15:34:13Z</time>
      </trkpt>
      <trkpt lat="46.399148" lon="14.437823">
        <ele>1360.383457536</ele>
        <time>2011-04-23T15:33:58Z</time>
      </trkpt>
      <trkpt lat="46.399132" lon="14.437803">
        <ele>1361.3434458624</ele>
        <time>2011-04-23T15:33:30Z</time>
      </trkpt>
      <trkpt lat="46.399132" lon="14.437802">
        <ele>1360.383457536</ele>
        <time>2011-04-23T15:32:59Z</time>
      </trkpt>
      <trkpt lat="46.399132" lon="14.437802">
        <ele>1362.3134340672</ele>
        <time>2011-04-23T15:32:56Z</time>
      </trkpt>
      <trkpt lat="46.399132" lon="14.437802">
        <ele>1356.0635100672</ele>
        <time>2011-04-23T15:32:55Z</time>
      </trkpt>
      <trkpt lat="46.399132" lon="14.437802">
        <ele>1365.6733932096</ele>
        <time>2011-04-23T15:32:53Z</time>
      </trkpt>
      <trkpt lat="46.399132" lon="14.437802">
        <ele>1360.8634516992</ele>
        <time>2011-04-23T15:32:52Z</time>
      </trkpt>
      <trkpt lat="46.399132" lon="14.437802">
        <ele>1352.2135568832</ele>
        <time>2011-04-23T15:32:52Z</time>
      </trkpt>
      <trkpt lat="46.399132" lon="14.437802">
        <ele>1361.3434458624</ele>
        <time>2011-04-23T15:32:26Z</time>
      </trkpt>
      <trkpt lat="46.399137" lon="14.437753">
        <ele>1361.8234400256</ele>
        <time>2011-04-23T15:32:14Z</time>
      </trkpt>
      <trkpt lat="46.399126" lon="14.437706">
        <ele>1361.3434458624</ele>
        <time>2011-04-23T15:31:59Z</time>
      </trkpt>
      <trkpt lat="46.399121" lon="14.437610">
        <ele>1362.7934282304</ele>
        <time>2011-04-23T15:31:54Z</time>
      </trkpt>
      <trkpt lat="46.399099" lon="14.437484">
        <ele>1364.23341072</ele>
        <time>2011-04-23T15:31:43Z</time>
      </trkpt>
      <trkpt lat="46.399062" lon="14.437328">
        <ele>1367.1133756992</ele>
        <time>2011-04-23T15:31:30Z</time>
      </trkpt>
      <trkpt lat="46.399003" lon="14.437196">
        <ele>1368.0733640256</ele>
        <time>2011-04-23T15:31:15Z</time>
      </trkpt>
      <trkpt lat="46.398986" lon="14.437108">
        <ele>1370.48333472</ele>
        <time>2011-04-23T15:31:03Z</time>
      </trkpt>
      <trkpt lat="46.398976" lon="14.437052">
        <ele>1371.4433230464</ele>
        <time>2011-04-23T15:30:53Z</time>
      </trkpt>
      <trkpt lat="46.398954" lon="14.437011">
        <ele>1371.4433230464</ele>
        <time>2011-04-23T15:30:37Z</time>
      </trkpt>
      <trkpt lat="46.398950" lon="14.436968">
        <ele>1372.883305536</ele>
        <time>2011-04-23T15:30:21Z</time>
      </trkpt>
      <trkpt lat="46.398976" lon="14.436926">
        <ele>1374.3232880256</ele>
        <time>2011-04-23T15:30:10Z</time>
      </trkpt>
      <trkpt lat="46.398970" lon="14.436897">
        <ele>1376.73325872</ele>
        <time>2011-04-23T15:29:58Z</time>
      </trkpt>
      <trkpt lat="46.398965" lon="14.436883">
        <ele>1376.2432646784</ele>
        <time>2011-04-23T15:29:55Z</time>
      </trkpt>
      <trkpt lat="46.399009" lon="14.436831">
        <ele>1378.6532353728</ele>
        <time>2011-04-23T15:29:46Z</time>
      </trkpt>
      <trkpt lat="46.399019" lon="14.436765">
        <ele>1379.133229536</ele>
        <time>2011-04-23T15:29:33Z</time>
      </trkpt>
      <trkpt lat="46.399013" lon="14.436760">
        <ele>1380.0932178624</ele>
        <time>2011-04-23T15:29:32Z</time>
      </trkpt>
      <trkpt lat="46.399062" lon="14.436679">
        <ele>1382.4931886784</ele>
        <time>2011-04-23T15:29:17Z</time>
      </trkpt>
      <trkpt lat="46.399152" lon="14.436606">
        <ele>1383.9431710464</ele>
        <time>2011-04-23T15:29:05Z</time>
      </trkpt>
      <trkpt lat="46.399148" lon="14.436505">
        <ele>1384.9031593728</ele>
        <time>2011-04-23T15:28:53Z</time>
      </trkpt>
      <trkpt lat="46.399191" lon="14.436422">
        <ele>1387.783124352</ele>
        <time>2011-04-23T15:28:42Z</time>
      </trkpt>
      <trkpt lat="46.399211" lon="14.436273">
        <ele>1388.7431126784</ele>
        <time>2011-04-23T15:28:30Z</time>
      </trkpt>
      <trkpt lat="46.399211" lon="14.436260">
        <ele>1390.183095168</ele>
        <time>2011-04-23T15:28:22Z</time>
      </trkpt>
      <trkpt lat="46.399234" lon="14.436221">
        <ele>1393.0730600256</ele>
        <time>2011-04-23T15:28:14Z</time>
      </trkpt>
      <trkpt lat="46.399277" lon="14.436187">
        <ele>1394.033048352</ele>
        <time>2011-04-23T15:27:52Z</time>
      </trkpt>
      <trkpt lat="46.399287" lon="14.436104">
        <ele>1394.9930366784</ele>
        <time>2011-04-23T15:27:39Z</time>
      </trkpt>
      <trkpt lat="46.399297" lon="14.436045">
        <ele>1396.433019168</ele>
        <time>2011-04-23T15:27:24Z</time>
      </trkpt>
      <trkpt lat="46.399422" lon="14.435956">
        <ele>1398.3529958208</ele>
        <time>2011-04-23T15:27:13Z</time>
      </trkpt>
      <trkpt lat="46.399474" lon="14.435911">
        <ele>1399.3229840256</ele>
        <time>2011-04-23T15:27:05Z</time>
      </trkpt>
      <trkpt lat="46.399501" lon="14.435771">
        <ele>1402.682943168</ele>
        <time>2011-04-23T15:26:53Z</time>
      </trkpt>
      <trkpt lat="46.399501" lon="14.435696">
        <ele>1404.6029198208</ele>
        <time>2011-04-23T15:26:38Z</time>
      </trkpt>
      <trkpt lat="46.399448" lon="14.435540">
        <ele>1407.0128905152</ele>
        <time>2011-04-23T15:26:26Z</time>
      </trkpt>
      <trkpt lat="46.399481" lon="14.435436">
        <ele>1409.8928554944</ele>
        <time>2011-04-23T15:26:11Z</time>
      </trkpt>
      <trkpt lat="46.399485" lon="14.435302">
        <ele>1411.8128321472</ele>
        <time>2011-04-23T15:25:57Z</time>
      </trkpt>
      <trkpt lat="46.399485" lon="14.435193">
        <ele>1412.7728204736</ele>
        <time>2011-04-23T15:25:44Z</time>
      </trkpt>
      <trkpt lat="46.399474" lon="14.435105">
        <ele>1414.7027970048</ele>
        <time>2011-04-23T15:25:37Z</time>
      </trkpt>
      <trkpt lat="46.399485" lon="14.435005">
        <ele>1415.6627853312</ele>
        <time>2011-04-23T15:25:25Z</time>
      </trkpt>
      <trkpt lat="46.399485" lon="14.435005">
        <ele>1415.182791168</ele>
        <time>2011-04-23T15:25:22Z</time>
      </trkpt>
      <trkpt lat="46.399485" lon="14.435005">
        <ele>1414.7027970048</ele>
        <time>2011-04-23T15:25:02Z</time>
      </trkpt>
      <trkpt lat="46.399485" lon="14.434949">
        <ele>1415.182791168</ele>
        <time>2011-04-23T15:24:49Z</time>
      </trkpt>
      <trkpt lat="46.399501" lon="14.434821">
        <ele>1416.6227736576</ele>
        <time>2011-04-23T15:24:35Z</time>
      </trkpt>
      <trkpt lat="46.399501" lon="14.434702">
        <ele>1418.5427503104</ele>
        <time>2011-04-23T15:24:22Z</time>
      </trkpt>
      <trkpt lat="46.399454" lon="14.434590">
        <ele>1418.5427503104</ele>
        <time>2011-04-23T15:24:09Z</time>
      </trkpt>
      <trkpt lat="46.399442" lon="14.434529">
        <ele>1418.0627561472</ele>
        <time>2011-04-23T15:23:59Z</time>
      </trkpt>
      <trkpt lat="46.399442" lon="14.434529">
        <ele>1423.832685984</ele>
        <time>2011-04-23T15:23:57Z</time>
      </trkpt>
      <trkpt lat="46.399442" lon="14.434529">
        <ele>1418.0627561472</ele>
        <time>2011-04-23T15:23:56Z</time>
      </trkpt>
      <trkpt lat="46.399442" lon="14.434529">
        <ele>1417.582761984</ele>
        <time>2011-04-23T15:23:37Z</time>
      </trkpt>
      <trkpt lat="46.399442" lon="14.434488">
        <ele>1417.1027678208</ele>
        <time>2011-04-23T15:23:22Z</time>
      </trkpt>
      <trkpt lat="46.399426" lon="14.434359">
        <ele>1418.0627561472</ele>
        <time>2011-04-23T15:23:10Z</time>
      </trkpt>
      <trkpt lat="46.399363" lon="14.434189">
        <ele>1418.0627561472</ele>
        <time>2011-04-23T15:22:57Z</time>
      </trkpt>
      <trkpt lat="46.399368" lon="14.434024">
        <ele>1416.6227736576</ele>
        <time>2011-04-23T15:22:44Z</time>
      </trkpt>
      <trkpt lat="46.399363" lon="14.433946">
        <ele>1417.1027678208</ele>
        <time>2011-04-23T15:22:40Z</time>
      </trkpt>
      <trkpt lat="46.399363" lon="14.433864">
        <ele>1419.0227444736</ele>
        <time>2011-04-23T15:22:35Z</time>
      </trkpt>
      <trkpt lat="46.399352" lon="14.433829">
        <ele>1417.582761984</ele>
        <time>2011-04-23T15:22:27Z</time>
      </trkpt>
      <trkpt lat="46.399282" lon="14.433741">
        <ele>1418.5427503104</ele>
        <time>2011-04-23T15:22:15Z</time>
      </trkpt>
      <trkpt lat="46.399287" lon="14.433593">
        <ele>1418.5427503104</ele>
        <time>2011-04-23T15:22:03Z</time>
      </trkpt>
      <trkpt lat="46.399261" lon="14.433479">
        <ele>1419.0227444736</ele>
        <time>2011-04-23T15:21:53Z</time>
      </trkpt>
      <trkpt lat="46.399254" lon="14.433289">
        <ele>1420.9527210048</ele>
        <time>2011-04-23T15:21:40Z</time>
      </trkpt>
      <trkpt lat="46.399239" lon="14.433187">
        <ele>1421.432715168</ele>
        <time>2011-04-23T15:21:29Z</time>
      </trkpt>
      <trkpt lat="46.399223" lon="14.433029">
        <ele>1422.3927034944</ele>
        <time>2011-04-23T15:21:18Z</time>
      </trkpt>
      <trkpt lat="46.399228" lon="14.432994">
        <ele>1423.3526918208</ele>
        <time>2011-04-23T15:21:10Z</time>
      </trkpt>
      <trkpt lat="46.399207" lon="14.432842">
        <ele>1425.2726684736</ele>
        <time>2011-04-23T15:20:58Z</time>
      </trkpt>
      <trkpt lat="46.399218" lon="14.432809">
        <ele>1427.682639168</ele>
        <time>2011-04-23T15:20:50Z</time>
      </trkpt>
      <trkpt lat="46.399207" lon="14.432793">
        <ele>1425.7526626368</ele>
        <time>2011-04-23T15:20:47Z</time>
      </trkpt>
      <trkpt lat="46.399185" lon="14.432723">
        <ele>1426.2326568</ele>
        <time>2011-04-23T15:20:38Z</time>
      </trkpt>
      <trkpt lat="46.399185" lon="14.432715">
        <ele>1426.7126509632</ele>
        <time>2011-04-23T15:20:33Z</time>
      </trkpt>
      <trkpt lat="46.399191" lon="14.432705">
        <ele>1427.682639168</ele>
        <time>2011-04-23T15:20:28Z</time>
      </trkpt>
      <trkpt lat="46.399191" lon="14.432684">
        <ele>1429.6026158208</ele>
        <time>2011-04-23T15:20:25Z</time>
      </trkpt>
      <trkpt lat="46.399191" lon="14.432668">
        <ele>1428.6426274944</ele>
        <time>2011-04-23T15:20:21Z</time>
      </trkpt>
      <trkpt lat="46.399191" lon="14.432665">
        <ele>1430.5626041472</ele>
        <time>2011-04-23T15:20:20Z</time>
      </trkpt>
      <trkpt lat="46.399196" lon="14.432649">
        <ele>1431.0425983104</ele>
        <time>2011-04-23T15:20:04Z</time>
      </trkpt>
      <trkpt lat="46.399223" lon="14.432549">
        <ele>1432.9625749632</ele>
        <time>2011-04-23T15:19:52Z</time>
      </trkpt>
      <trkpt lat="46.399211" lon="14.432405">
        <ele>1434.4025574528</ele>
        <time>2011-04-23T15:19:38Z</time>
      </trkpt>
      <trkpt lat="46.399191" lon="14.432153">
        <ele>1435.8525398208</ele>
        <time>2011-04-23T15:19:25Z</time>
      </trkpt>
      <trkpt lat="46.399175" lon="14.432109">
        <ele>1437.2925223104</ele>
        <time>2011-04-23T15:19:15Z</time>
      </trkpt>
      <trkpt lat="46.399175" lon="14.432086">
        <ele>1438.7325048</ele>
        <time>2011-04-23T15:18:47Z</time>
      </trkpt>
      <trkpt lat="46.399175" lon="14.432086">
        <ele>1437.7725164736</ele>
        <time>2011-04-23T15:18:17Z</time>
      </trkpt>
      <trkpt lat="46.399185" lon="14.432066">
        <ele>1437.7725164736</ele>
        <time>2011-04-23T15:17:53Z</time>
      </trkpt>
      <trkpt lat="46.399185" lon="14.432066">
        <ele>1435.3725456576</ele>
        <time>2011-04-23T15:17:49Z</time>
      </trkpt>
      <trkpt lat="46.399185" lon="14.432066">
        <ele>1439.6924931264</ele>
        <time>2011-04-23T15:17:33Z</time>
      </trkpt>
      <trkpt lat="46.399201" lon="14.432029">
        <ele>1438.2525106368</ele>
        <time>2011-04-23T15:17:15Z</time>
      </trkpt>
      <trkpt lat="46.399223" lon="14.432003">
        <ele>1437.7725164736</ele>
        <time>2011-04-23T15:17:06Z</time>
      </trkpt>
      <trkpt lat="46.399250" lon="14.431964">
        <ele>1440.1724872896</ele>
        <time>2011-04-23T15:16:52Z</time>
      </trkpt>
      <trkpt lat="46.399250" lon="14.431960">
        <ele>1440.6524814528</ele>
        <time>2011-04-23T15:16:52Z</time>
      </trkpt>
      <trkpt lat="46.399261" lon="14.431933">
        <ele>1444.0224404736</ele>
        <time>2011-04-23T15:16:40Z</time>
      </trkpt>
      <trkpt lat="46.399261" lon="14.431925">
        <ele>1444.9824288</ele>
        <time>2011-04-23T15:16:25Z</time>
      </trkpt>
      <trkpt lat="46.399261" lon="14.431906">
        <ele>1445.4624229632</ele>
        <time>2011-04-23T15:16:20Z</time>
      </trkpt>
      <trkpt lat="46.399270" lon="14.431893">
        <ele>1448.8223821056</ele>
        <time>2011-04-23T15:16:10Z</time>
      </trkpt>
      <trkpt lat="46.399277" lon="14.431888">
        <ele>1448.8223821056</ele>
        <time>2011-04-23T15:16:06Z</time>
      </trkpt>
      <trkpt lat="46.399266" lon="14.431873">
        <ele>1451.2323528</ele>
        <time>2011-04-23T15:15:58Z</time>
      </trkpt>
      <trkpt lat="46.399261" lon="14.431873">
        <ele>1449.7923703104</ele>
        <time>2011-04-23T15:15:54Z</time>
      </trkpt>
      <trkpt lat="46.399261" lon="14.431842">
        <ele>1452.6723352896</ele>
        <time>2011-04-23T15:15:46Z</time>
      </trkpt>
      <trkpt lat="46.399250" lon="14.431700">
        <ele>1453.632323616</ele>
        <time>2011-04-23T15:15:31Z</time>
      </trkpt>
      <trkpt lat="46.399250" lon="14.431546">
        <ele>1456.5122885952</ele>
        <time>2011-04-23T15:15:19Z</time>
      </trkpt>
      <trkpt lat="46.399287" lon="14.431430">
        <ele>1459.882247616</ele>
        <time>2011-04-23T15:15:12Z</time>
      </trkpt>
      <trkpt lat="46.399287" lon="14.431359">
        <ele>1459.882247616</ele>
        <time>2011-04-23T15:15:00Z</time>
      </trkpt>
      <trkpt lat="46.399297" lon="14.431367">
        <ele>1459.882247616</ele>
        <time>2011-04-23T15:14:59Z</time>
      </trkpt>
      <trkpt lat="46.399368" lon="14.431396">
        <ele>1461.3222301056</ele>
        <time>2011-04-23T15:14:51Z</time>
      </trkpt>
      <trkpt lat="46.399383" lon="14.431399">
        <ele>1463.2422067584</ele>
        <time>2011-04-23T15:14:44Z</time>
      </trkpt>
      <trkpt lat="46.399383" lon="14.431410">
        <ele>1465.6521774528</ele>
        <time>2011-04-23T15:14:30Z</time>
      </trkpt>
      <trkpt lat="46.399388" lon="14.431343">
        <ele>1469.0121365952</ele>
        <time>2011-04-23T15:14:20Z</time>
      </trkpt>
      <trkpt lat="46.399388" lon="14.431335">
        <ele>1468.532142432</ele>
        <time>2011-04-23T15:13:53Z</time>
      </trkpt>
      <trkpt lat="46.399388" lon="14.431284">
        <ele>1470.4521190848</ele>
        <time>2011-04-23T15:13:39Z</time>
      </trkpt>
      <trkpt lat="46.399388" lon="14.431284">
        <ele>1468.532142432</ele>
        <time>2011-04-23T15:13:34Z</time>
      </trkpt>
      <trkpt lat="46.399388" lon="14.431237">
        <ele>1472.382095616</ele>
        <time>2011-04-23T15:13:21Z</time>
      </trkpt>
      <trkpt lat="46.399411" lon="14.431205">
        <ele>1471.9021014528</ele>
        <time>2011-04-23T15:13:08Z</time>
      </trkpt>
      <trkpt lat="46.399454" lon="14.431125">
        <ele>1472.8620897792</ele>
        <time>2011-04-23T15:12:57Z</time>
      </trkpt>
      <trkpt lat="46.399491" lon="14.431102">
        <ele>1474.3020722688</ele>
        <time>2011-04-23T15:12:40Z</time>
      </trkpt>
      <trkpt lat="46.399528" lon="14.431068">
        <ele>1475.2620605952</ele>
        <time>2011-04-23T15:12:22Z</time>
      </trkpt>
      <trkpt lat="46.399528" lon="14.431053">
        <ele>1476.7020430848</ele>
        <time>2011-04-23T15:12:07Z</time>
      </trkpt>
      <trkpt lat="46.399540" lon="14.431050">
        <ele>1478.1420255744</ele>
        <time>2011-04-23T15:12:02Z</time>
      </trkpt>
      <trkpt lat="46.399555" lon="14.431053">
        <ele>1480.0720021056</ele>
        <time>2011-04-23T15:11:46Z</time>
      </trkpt>
      <trkpt lat="46.399550" lon="14.431056">
        <ele>1480.5519962688</ele>
        <time>2011-04-23T15:11:25Z</time>
      </trkpt>
      <trkpt lat="46.399540" lon="14.431076">
        <ele>1481.031990432</ele>
        <time>2011-04-23T15:11:12Z</time>
      </trkpt>
      <trkpt lat="46.399507" lon="14.431068">
        <ele>1479.1120137792</ele>
        <time>2011-04-23T15:10:53Z</time>
      </trkpt>
      <trkpt lat="46.399481" lon="14.431037">
        <ele>1477.6620314112</ele>
        <time>2011-04-23T15:10:34Z</time>
      </trkpt>
      <trkpt lat="46.399481" lon="14.431037">
        <ele>1474.3020722688</ele>
        <time>2011-04-23T15:10:19Z</time>
      </trkpt>
      <trkpt lat="46.399465" lon="14.431041">
        <ele>1473.3420839424</ele>
        <time>2011-04-23T15:09:59Z</time>
      </trkpt>
      <trkpt lat="46.399465" lon="14.431041">
        <ele>1474.782066432</ele>
        <time>2011-04-23T15:09:55Z</time>
      </trkpt>
      <trkpt lat="46.399465" lon="14.431045">
        <ele>1473.8220781056</ele>
        <time>2011-04-23T15:09:25Z</time>
      </trkpt>
      <trkpt lat="46.399465" lon="14.431045">
        <ele>1474.782066432</ele>
        <time>2011-04-23T15:09:20Z</time>
      </trkpt>
      <trkpt lat="46.399458" lon="14.431059">
        <ele>1474.782066432</ele>
        <time>2011-04-23T15:09:06Z</time>
      </trkpt>
      <trkpt lat="46.399458" lon="14.431059">
        <ele>1474.782066432</ele>
        <time>2011-04-23T15:09:05Z</time>
      </trkpt>
      <trkpt lat="46.399458" lon="14.431059">
        <ele>1481.031990432</ele>
        <time>2011-04-23T15:09:04Z</time>
      </trkpt>
      <trkpt lat="46.399458" lon="14.431059">
        <ele>1473.8220781056</ele>
        <time>2011-04-23T15:08:56Z</time>
      </trkpt>
      <trkpt lat="46.399465" lon="14.431068">
        <ele>1473.8220781056</ele>
        <time>2011-04-23T15:08:31Z</time>
      </trkpt>
      <trkpt lat="46.399465" lon="14.431068">
        <ele>1475.2620605952</ele>
        <time>2011-04-23T15:08:06Z</time>
      </trkpt>
      <trkpt lat="46.399465" lon="14.431068">
        <ele>1471.9021014528</ele>
        <time>2011-04-23T15:08:04Z</time>
      </trkpt>
      <trkpt lat="46.399465" lon="14.431068">
        <ele>1475.2620605952</ele>
        <time>2011-04-23T15:08:00Z</time>
      </trkpt>
      <trkpt lat="46.399465" lon="14.431068">
        <ele>1470.932113248</ele>
        <time>2011-04-23T15:07:56Z</time>
      </trkpt>
      <trkpt lat="46.399411" lon="14.431074">
        <ele>1473.8220781056</ele>
        <time>2011-04-23T15:07:48Z</time>
      </trkpt>
      <trkpt lat="46.399399" lon="14.431076">
        <ele>1473.3420839424</ele>
        <time>2011-04-23T15:07:45Z</time>
      </trkpt>
      <trkpt lat="46.399388" lon="14.431076">
        <ele>1476.2220489216</ele>
        <time>2011-04-23T15:07:33Z</time>
      </trkpt>
      <trkpt lat="46.399329" lon="14.431040">
        <ele>1477.6620314112</ele>
        <time>2011-04-23T15:07:17Z</time>
      </trkpt>
      <trkpt lat="46.399325" lon="14.431036">
        <ele>1479.5920079424</ele>
        <time>2011-04-23T15:07:12Z</time>
      </trkpt>
      <trkpt lat="46.399266" lon="14.431010">
        <ele>1479.5920079424</ele>
        <time>2011-04-23T15:07:01Z</time>
      </trkpt>
      <trkpt lat="46.399223" lon="14.430950">
        <ele>1480.0720021056</ele>
        <time>2011-04-23T15:06:49Z</time>
      </trkpt>
      <trkpt lat="46.399211" lon="14.430941">
        <ele>1483.431961248</ele>
        <time>2011-04-23T15:06:39Z</time>
      </trkpt>
      <trkpt lat="46.399201" lon="14.430935">
        <ele>1483.431961248</ele>
        <time>2011-04-23T15:06:35Z</time>
      </trkpt>
      <trkpt lat="46.399169" lon="14.430884">
        <ele>1485.831932064</ele>
        <time>2011-04-23T15:06:16Z</time>
      </trkpt>
      <trkpt lat="46.399169" lon="14.430884">
        <ele>1489.2018910848</ele>
        <time>2011-04-23T15:06:11Z</time>
      </trkpt>
      <trkpt lat="46.399126" lon="14.430788">
        <ele>1490.6418735744</ele>
        <time>2011-04-23T15:05:56Z</time>
      </trkpt>
      <trkpt lat="46.399072" lon="14.430766">
        <ele>1489.681885248</ele>
        <time>2011-04-23T15:05:45Z</time>
      </trkpt>
      <trkpt lat="46.399009" lon="14.430698">
        <ele>1490.6418735744</ele>
        <time>2011-04-23T15:05:33Z</time>
      </trkpt>
      <trkpt lat="46.399003" lon="14.430694">
        <ele>1490.6418735744</ele>
        <time>2011-04-23T15:05:32Z</time>
      </trkpt>
      <trkpt lat="46.398954" lon="14.430620">
        <ele>1489.2018910848</ele>
        <time>2011-04-23T15:05:18Z</time>
      </trkpt>
      <trkpt lat="46.398907" lon="14.430408">
        <ele>1490.1618794112</ele>
        <time>2011-04-23T15:05:06Z</time>
      </trkpt>
      <trkpt lat="46.398907" lon="14.430380">
        <ele>1490.6418735744</ele>
        <time>2011-04-23T15:05:02Z</time>
      </trkpt>
      <trkpt lat="46.398891" lon="14.430185">
        <ele>1491.1218677376</ele>
        <time>2011-04-23T15:04:50Z</time>
      </trkpt>
      <trkpt lat="46.398879" lon="14.430014">
        <ele>1493.531838432</ele>
        <time>2011-04-23T15:04:36Z</time>
      </trkpt>
      <trkpt lat="46.398874" lon="14.429967">
        <ele>1493.0418443904</ele>
        <time>2011-04-23T15:04:34Z</time>
      </trkpt>
      <trkpt lat="46.398895" lon="14.429885">
        <ele>1493.0418443904</ele>
        <time>2011-04-23T15:04:30Z</time>
      </trkpt>
      <trkpt lat="46.398960" lon="14.429768">
        <ele>1495.931809248</ele>
        <time>2011-04-23T15:04:16Z</time>
      </trkpt>
      <trkpt lat="46.399029" lon="14.429692">
        <ele>1495.931809248</ele>
        <time>2011-04-23T15:04:04Z</time>
      </trkpt>
      <trkpt lat="46.399062" lon="14.429665">
        <ele>1494.9718209216</ele>
        <time>2011-04-23T15:04:01Z</time>
      </trkpt>
      <trkpt lat="46.399094" lon="14.429668">
        <ele>1492.5618502272</ele>
        <time>2011-04-23T15:03:53Z</time>
      </trkpt>
      <trkpt lat="46.399152" lon="14.429570">
        <ele>1492.5618502272</ele>
        <time>2011-04-23T15:03:41Z</time>
      </trkpt>
      <trkpt lat="46.399201" lon="14.429471">
        <ele>1494.0118325952</ele>
        <time>2011-04-23T15:03:34Z</time>
      </trkpt>
      <trkpt lat="46.399261" lon="14.429412">
        <ele>1494.0118325952</ele>
        <time>2011-04-23T15:03:30Z</time>
      </trkpt>
      <trkpt lat="46.399287" lon="14.429385">
        <ele>1494.4918267584</ele>
        <time>2011-04-23T15:03:11Z</time>
      </trkpt>
      <trkpt lat="46.399287" lon="14.429385">
        <ele>1493.0418443904</ele>
        <time>2011-04-23T15:02:50Z</time>
      </trkpt>
      <trkpt lat="46.399287" lon="14.429385">
        <ele>1497.3717917376</ele>
        <time>2011-04-23T15:02:48Z</time>
      </trkpt>
      <trkpt lat="46.399287" lon="14.429385">
        <ele>1490.1618794112</ele>
        <time>2011-04-23T15:02:47Z</time>
      </trkpt>
      <trkpt lat="46.399313" lon="14.429346">
        <ele>1493.0418443904</ele>
        <time>2011-04-23T15:02:38Z</time>
      </trkpt>
      <trkpt lat="46.399431" lon="14.429248">
        <ele>1490.6418735744</ele>
        <time>2011-04-23T15:02:28Z</time>
      </trkpt>
      <trkpt lat="46.399550" lon="14.429154">
        <ele>1490.1618794112</ele>
        <time>2011-04-23T15:02:16Z</time>
      </trkpt>
      <trkpt lat="46.399576" lon="14.429087">
        <ele>1491.1218677376</ele>
        <time>2011-04-23T15:02:02Z</time>
      </trkpt>
      <trkpt lat="46.399641" lon="14.429012">
        <ele>1492.5618502272</ele>
        <time>2011-04-23T15:01:52Z</time>
      </trkpt>
      <trkpt lat="46.399748" lon="14.428882">
        <ele>1491.6018619008</ele>
        <time>2011-04-23T15:01:38Z</time>
      </trkpt>
      <trkpt lat="46.399743" lon="14.428877">
        <ele>1490.6418735744</ele>
        <time>2011-04-23T15:01:04Z</time>
      </trkpt>
      <trkpt lat="46.399743" lon="14.428877">
        <ele>1491.6018619008</ele>
        <time>2011-04-23T15:00:31Z</time>
      </trkpt>
      <trkpt lat="46.399770" lon="14.428820">
        <ele>1490.6418735744</ele>
        <time>2011-04-23T15:00:17Z</time>
      </trkpt>
      <trkpt lat="46.399813" lon="14.428827">
        <ele>1491.1218677376</ele>
        <time>2011-04-23T15:00:13Z</time>
      </trkpt>
      <trkpt lat="46.399844" lon="14.428835">
        <ele>1490.1618794112</ele>
        <time>2011-04-23T15:00:09Z</time>
      </trkpt>
      <trkpt lat="46.399926" lon="14.428818">
        <ele>1489.681885248</ele>
        <time>2011-04-23T14:59:58Z</time>
      </trkpt>
      <trkpt lat="46.399953" lon="14.428779">
        <ele>1490.6418735744</ele>
        <time>2011-04-23T14:59:39Z</time>
      </trkpt>
      <trkpt lat="46.399962" lon="14.428752">
        <ele>1489.681885248</ele>
        <time>2011-04-23T14:59:24Z</time>
      </trkpt>
      <trkpt lat="46.399962" lon="14.428752">
        <ele>1489.681885248</ele>
        <time>2011-04-23T14:59:19Z</time>
      </trkpt>
      <trkpt lat="46.400001" lon="14.428686">
        <ele>1490.1618794112</ele>
        <time>2011-04-23T14:59:07Z</time>
      </trkpt>
      <trkpt lat="46.400028" lon="14.428675">
        <ele>1489.681885248</ele>
        <time>2011-04-23T14:58:52Z</time>
      </trkpt>
      <trkpt lat="46.400028" lon="14.428666">
        <ele>1489.681885248</ele>
        <time>2011-04-23T14:58:22Z</time>
      </trkpt>
      <trkpt lat="46.400028" lon="14.428662">
        <ele>1489.681885248</ele>
        <time>2011-04-23T14:58:02Z</time>
      </trkpt>
      <trkpt lat="46.400059" lon="14.428639">
        <ele>1490.1618794112</ele>
        <time>2011-04-23T14:57:35Z</time>
      </trkpt>
      <trkpt lat="46.400081" lon="14.428597">
        <ele>1490.1618794112</ele>
        <time>2011-04-23T14:57:23Z</time>
      </trkpt>
      <trkpt lat="46.400102" lon="14.428563">
        <ele>1490.1618794112</ele>
        <time>2011-04-23T14:56:52Z</time>
      </trkpt>
      <trkpt lat="46.400114" lon="14.428536">
        <ele>1489.681885248</ele>
        <time>2011-04-23T14:56:33Z</time>
      </trkpt>
      <trkpt lat="46.400130" lon="14.428474">
        <ele>1490.1618794112</ele>
        <time>2011-04-23T14:56:14Z</time>
      </trkpt>
      <trkpt lat="46.400124" lon="14.428385">
        <ele>1490.6418735744</ele>
        <time>2011-04-23T14:55:58Z</time>
      </trkpt>
      <trkpt lat="46.400124" lon="14.428379">
        <ele>1490.1618794112</ele>
        <time>2011-04-23T14:55:32Z</time>
      </trkpt>
      <trkpt lat="46.400124" lon="14.428379">
        <ele>1490.1618794112</ele>
        <time>2011-04-23T14:55:05Z</time>
      </trkpt>
      <trkpt lat="46.400107" lon="14.428354">
        <ele>1491.6018619008</ele>
        <time>2011-04-23T14:54:45Z</time>
      </trkpt>
      <trkpt lat="46.400114" lon="14.428347">
        <ele>1491.6018619008</ele>
        <time>2011-04-23T14:54:29Z</time>
      </trkpt>
      <trkpt lat="46.400118" lon="14.428304">
        <ele>1493.531838432</ele>
        <time>2011-04-23T14:54:17Z</time>
      </trkpt>
      <trkpt lat="46.400124" lon="14.428236">
        <ele>1494.0118325952</ele>
        <time>2011-04-23T14:54:13Z</time>
      </trkpt>
      <trkpt lat="46.400081" lon="14.428131">
        <ele>1494.0118325952</ele>
        <time>2011-04-23T14:54:06Z</time>
      </trkpt>
      <trkpt lat="46.400087" lon="14.428036">
        <ele>1495.931809248</ele>
        <time>2011-04-23T14:53:56Z</time>
      </trkpt>
      <trkpt lat="46.400087" lon="14.427993">
        <ele>1495.4518150848</ele>
        <time>2011-04-23T14:53:55Z</time>
      </trkpt>
      <trkpt lat="46.400091" lon="14.427949">
        <ele>1496.8917975744</ele>
        <time>2011-04-23T14:53:52Z</time>
      </trkpt>
      <trkpt lat="46.400087" lon="14.427819">
        <ele>1495.4518150848</ele>
        <time>2011-04-23T14:53:38Z</time>
      </trkpt>
      <trkpt lat="46.400087" lon="14.427817">
        <ele>1497.3717917376</ele>
        <time>2011-04-23T14:53:11Z</time>
      </trkpt>
      <trkpt lat="46.400087" lon="14.427817">
        <ele>1495.931809248</ele>
        <time>2011-04-23T14:53:09Z</time>
      </trkpt>
      <trkpt lat="46.400087" lon="14.427817">
        <ele>1493.531838432</ele>
        <time>2011-04-23T14:53:08Z</time>
      </trkpt>
      <trkpt lat="46.400087" lon="14.427817">
        <ele>1498.331780064</ele>
        <time>2011-04-23T14:53:02Z</time>
      </trkpt>
      <trkpt lat="46.400087" lon="14.427817">
        <ele>1490.1618794112</ele>
        <time>2011-04-23T14:53:01Z</time>
      </trkpt>
      <trkpt lat="46.400087" lon="14.427817">
        <ele>1497.3717917376</ele>
        <time>2011-04-23T14:52:48Z</time>
      </trkpt>
      <trkpt lat="46.400075" lon="14.427773">
        <ele>1497.8517859008</ele>
        <time>2011-04-23T14:52:29Z</time>
      </trkpt>
      <trkpt lat="46.400075" lon="14.427668">
        <ele>1497.3717917376</ele>
        <time>2011-04-23T14:52:19Z</time>
      </trkpt>
      <trkpt lat="46.400071" lon="14.427530">
        <ele>1499.2917683904</ele>
        <time>2011-04-23T14:52:07Z</time>
      </trkpt>
      <trkpt lat="46.400114" lon="14.427474">
        <ele>1501.2217449216</ele>
        <time>2011-04-23T14:51:54Z</time>
      </trkpt>
      <trkpt lat="46.400114" lon="14.427428">
        <ele>1503.6217157376</ele>
        <time>2011-04-23T14:51:36Z</time>
      </trkpt>
      <trkpt lat="46.400064" lon="14.427302">
        <ele>1505.0616982272</ele>
        <time>2011-04-23T14:51:24Z</time>
      </trkpt>
      <trkpt lat="46.400032" lon="14.427133">
        <ele>1507.4616690432</ele>
        <time>2011-04-23T14:51:09Z</time>
      </trkpt>
      <trkpt lat="46.400016" lon="14.427035">
        <ele>1509.3916455744</ele>
        <time>2011-04-23T14:50:54Z</time>
      </trkpt>
      <trkpt lat="46.400016" lon="14.427023">
        <ele>1508.9116514112</ele>
        <time>2011-04-23T14:50:51Z</time>
      </trkpt>
      <trkpt lat="46.400005" lon="14.426987">
        <ele>1511.3116222272</ele>
        <time>2011-04-23T14:50:39Z</time>
      </trkpt>
      <trkpt lat="46.399996" lon="14.426967">
        <ele>1511.7916163904</ele>
        <time>2011-04-23T14:50:31Z</time>
      </trkpt>
      <trkpt lat="46.399985" lon="14.426967">
        <ele>1513.23159888</ele>
        <time>2011-04-23T14:50:19Z</time>
      </trkpt>
      <trkpt lat="46.399930" lon="14.426868">
        <ele>1511.7916163904</ele>
        <time>2011-04-23T14:50:04Z</time>
      </trkpt>
      <trkpt lat="46.399930" lon="14.426868">
        <ele>1512.2716105536</ele>
        <time>2011-04-23T14:49:51Z</time>
      </trkpt>
      <trkpt lat="46.399915" lon="14.426860">
        <ele>1511.7916163904</ele>
        <time>2011-04-23T14:49:33Z</time>
      </trkpt>
      <trkpt lat="46.399915" lon="14.426860">
        <ele>1512.2716105536</ele>
        <time>2011-04-23T14:49:28Z</time>
      </trkpt>
      <trkpt lat="46.399910" lon="14.426854">
        <ele>1511.3116222272</ele>
        <time>2011-04-23T14:49:05Z</time>
      </trkpt>
      <trkpt lat="46.399903" lon="14.426842">
        <ele>1511.7916163904</ele>
        <time>2011-04-23T14:49:03Z</time>
      </trkpt>
      <trkpt lat="46.399899" lon="14.426707">
        <ele>1510.3516339008</ele>
        <time>2011-04-23T14:48:49Z</time>
      </trkpt>
      <trkpt lat="46.399883" lon="14.426593">
        <ele>1508.9116514112</ele>
        <time>2011-04-23T14:48:36Z</time>
      </trkpt>
      <trkpt lat="46.399899" lon="14.426527">
        <ele>1508.9116514112</ele>
        <time>2011-04-23T14:48:31Z</time>
      </trkpt>
      <trkpt lat="46.399899" lon="14.426484">
        <ele>1508.431657248</ele>
        <time>2011-04-23T14:48:27Z</time>
      </trkpt>
      <trkpt lat="46.399877" lon="14.426480">
        <ele>1509.8716397376</ele>
        <time>2011-04-23T14:48:18Z</time>
      </trkpt>
      <trkpt lat="46.399791" lon="14.426467">
        <ele>1510.3516339008</ele>
        <time>2011-04-23T14:48:05Z</time>
      </trkpt>
      <trkpt lat="46.399785" lon="14.426451">
        <ele>1510.3516339008</ele>
        <time>2011-04-23T14:48:04Z</time>
      </trkpt>
      <trkpt lat="46.399743" lon="14.426322">
        <ele>1512.2716105536</ele>
        <time>2011-04-23T14:47:49Z</time>
      </trkpt>
      <trkpt lat="46.399716" lon="14.426256">
        <ele>1515.1615754112</ele>
        <time>2011-04-23T14:47:34Z</time>
      </trkpt>
      <trkpt lat="46.399722" lon="14.426178">
        <ele>1517.081552064</ele>
        <time>2011-04-23T14:47:20Z</time>
      </trkpt>
      <trkpt lat="46.399705" lon="14.426136">
        <ele>1518.0415403904</ele>
        <time>2011-04-23T14:47:06Z</time>
      </trkpt>
      <trkpt lat="46.399673" lon="14.426072">
        <ele>1520.9215053696</ele>
        <time>2011-04-23T14:46:54Z</time>
      </trkpt>
      <trkpt lat="46.399614" lon="14.426020">
        <ele>1523.331476064</ele>
        <time>2011-04-23T14:46:40Z</time>
      </trkpt>
      <trkpt lat="46.399587" lon="14.425988">
        <ele>1525.2514527168</ele>
        <time>2011-04-23T14:46:24Z</time>
      </trkpt>
      <trkpt lat="46.399566" lon="14.425953">
        <ele>1525.2514527168</ele>
        <time>2011-04-23T14:46:08Z</time>
      </trkpt>
      <trkpt lat="46.399560" lon="14.425933">
        <ele>1527.1714293696</ele>
        <time>2011-04-23T14:45:57Z</time>
      </trkpt>
      <trkpt lat="46.399540" lon="14.425856">
        <ele>1529.0914060224</ele>
        <time>2011-04-23T14:45:49Z</time>
      </trkpt>
      <trkpt lat="46.399540" lon="14.425847">
        <ele>1529.5714001856</ele>
        <time>2011-04-23T14:45:30Z</time>
      </trkpt>
      <trkpt lat="46.399491" lon="14.425778">
        <ele>1531.0213825536</ele>
        <time>2011-04-23T14:45:18Z</time>
      </trkpt>
      <trkpt lat="46.399458" lon="14.425687">
        <ele>1531.98137088</ele>
        <time>2011-04-23T14:45:02Z</time>
      </trkpt>
      <trkpt lat="46.399395" lon="14.425547">
        <ele>1532.4613650432</ele>
        <time>2011-04-23T14:44:48Z</time>
      </trkpt>
      <trkpt lat="46.399313" lon="14.425474">
        <ele>1531.5013767168</ele>
        <time>2011-04-23T14:44:35Z</time>
      </trkpt>
      <trkpt lat="46.399201" lon="14.425331">
        <ele>1531.0213825536</ele>
        <time>2011-04-23T14:44:23Z</time>
      </trkpt>
      <trkpt lat="46.399115" lon="14.425344">
        <ele>1533.4213533696</ele>
        <time>2011-04-23T14:44:11Z</time>
      </trkpt>
      <trkpt lat="46.399115" lon="14.425336">
        <ele>1532.4613650432</ele>
        <time>2011-04-23T14:43:46Z</time>
      </trkpt>
      <trkpt lat="46.399115" lon="14.425341">
        <ele>1531.98137088</ele>
        <time>2011-04-23T14:43:12Z</time>
      </trkpt>
      <trkpt lat="46.399115" lon="14.425341">
        <ele>1533.9013475328</ele>
        <time>2011-04-23T14:42:52Z</time>
      </trkpt>
      <trkpt lat="46.399040" lon="14.425220">
        <ele>1534.381341696</ele>
        <time>2011-04-23T14:42:40Z</time>
      </trkpt>
      <trkpt lat="46.398954" lon="14.425180">
        <ele>1534.381341696</ele>
        <time>2011-04-23T14:42:25Z</time>
      </trkpt>
      <trkpt lat="46.398933" lon="14.425149">
        <ele>1534.8613358592</ele>
        <time>2011-04-23T14:42:08Z</time>
      </trkpt>
      <trkpt lat="46.398852" lon="14.425081">
        <ele>1536.781312512</ele>
        <time>2011-04-23T14:41:54Z</time>
      </trkpt>
      <trkpt lat="46.398841" lon="14.425036">
        <ele>1539.1912832064</ele>
        <time>2011-04-23T14:41:41Z</time>
      </trkpt>
      <trkpt lat="46.398798" lon="14.424998">
        <ele>1540.1512715328</ele>
        <time>2011-04-23T14:41:31Z</time>
      </trkpt>
      <trkpt lat="46.398730" lon="14.424864">
        <ele>1543.5112306752</ele>
        <time>2011-04-23T14:41:19Z</time>
      </trkpt>
      <trkpt lat="46.398649" lon="14.424810">
        <ele>1544.9612130432</ele>
        <time>2011-04-23T14:41:06Z</time>
      </trkpt>
      <trkpt lat="46.398617" lon="14.424793">
        <ele>1546.4011955328</ele>
        <time>2011-04-23T14:40:51Z</time>
      </trkpt>
      <trkpt lat="46.398568" lon="14.424754">
        <ele>1549.281160512</ele>
        <time>2011-04-23T14:40:37Z</time>
      </trkpt>
      <trkpt lat="46.398563" lon="14.424744">
        <ele>1550.7211430016</ele>
        <time>2011-04-23T14:40:21Z</time>
      </trkpt>
      <trkpt lat="46.398547" lon="14.424754">
        <ele>1552.6511195328</ele>
        <time>2011-04-23T14:40:06Z</time>
      </trkpt>
      <trkpt lat="46.398488" lon="14.424724">
        <ele>1554.0911020224</ele>
        <time>2011-04-23T14:39:53Z</time>
      </trkpt>
      <trkpt lat="46.398466" lon="14.424694">
        <ele>1556.9710670016</ele>
        <time>2011-04-23T14:39:35Z</time>
      </trkpt>
      <trkpt lat="46.398423" lon="14.424630">
        <ele>1559.381037696</ele>
        <time>2011-04-23T14:39:22Z</time>
      </trkpt>
      <trkpt lat="46.398380" lon="14.424549">
        <ele>1562.2610026752</ele>
        <time>2011-04-23T14:39:04Z</time>
      </trkpt>
      <trkpt lat="46.398353" lon="14.424568">
        <ele>1564.180979328</ele>
        <time>2011-04-23T14:38:49Z</time>
      </trkpt>
      <trkpt lat="46.398348" lon="14.424568">
        <ele>1565.1409676544</ele>
        <time>2011-04-23T14:38:33Z</time>
      </trkpt>
      <trkpt lat="46.398290" lon="14.424529">
        <ele>1567.5509383488</ele>
        <time>2011-04-23T14:38:18Z</time>
      </trkpt>
      <trkpt lat="46.398274" lon="14.424475">
        <ele>1569.4709150016</ele>
        <time>2011-04-23T14:38:06Z</time>
      </trkpt>
      <trkpt lat="46.398258" lon="14.424448">
        <ele>1571.3908916544</ele>
        <time>2011-04-23T14:37:53Z</time>
      </trkpt>
      <trkpt lat="46.398241" lon="14.424424">
        <ele>1573.3108683072</ele>
        <time>2011-04-23T14:37:42Z</time>
      </trkpt>
      <trkpt lat="46.398224" lon="14.424399">
        <ele>1575.7208390016</ele>
        <time>2011-04-23T14:37:28Z</time>
      </trkpt>
      <trkpt lat="46.398203" lon="14.424385">
        <ele>1575.7208390016</ele>
        <time>2011-04-23T14:37:12Z</time>
      </trkpt>
      <trkpt lat="46.398188" lon="14.424362">
        <ele>1578.1208098176</ele>
        <time>2011-04-23T14:36:54Z</time>
      </trkpt>
      <trkpt lat="46.398188" lon="14.424356">
        <ele>1579.080798144</ele>
        <time>2011-04-23T14:36:37Z</time>
      </trkpt>
      <trkpt lat="46.398160" lon="14.424343">
        <ele>1581.0107746752</ele>
        <time>2011-04-23T14:36:22Z</time>
      </trkpt>
      <trkpt lat="46.398156" lon="14.424341">
        <ele>1581.9707630016</ele>
        <time>2011-04-23T14:36:06Z</time>
      </trkpt>
      <trkpt lat="46.398140" lon="14.424329">
        <ele>1583.8907396544</ele>
        <time>2011-04-23T14:35:47Z</time>
      </trkpt>
      <trkpt lat="46.398129" lon="14.424310">
        <ele>1584.8507279808</ele>
        <time>2011-04-23T14:35:29Z</time>
      </trkpt>
      <trkpt lat="46.398122" lon="14.424298">
        <ele>1586.7707046336</ele>
        <time>2011-04-23T14:35:16Z</time>
      </trkpt>
      <trkpt lat="46.398122" lon="14.424294">
        <ele>1588.2206870016</ele>
        <time>2011-04-23T14:35:01Z</time>
      </trkpt>
      <trkpt lat="46.398113" lon="14.424286">
        <ele>1589.6606694912</ele>
        <time>2011-04-23T14:34:45Z</time>
      </trkpt>
      <trkpt lat="46.398086" lon="14.424260">
        <ele>1591.580646144</ele>
        <time>2011-04-23T14:34:30Z</time>
      </trkpt>
      <trkpt lat="46.398059" lon="14.424243">
        <ele>1592.5406344704</ele>
        <time>2011-04-23T14:34:18Z</time>
      </trkpt>
      <trkpt lat="46.398027" lon="14.424166">
        <ele>1593.5006227968</ele>
        <time>2011-04-23T14:34:03Z</time>
      </trkpt>
      <trkpt lat="46.397978" lon="14.424026">
        <ele>1594.4606111232</ele>
        <time>2011-04-23T14:33:52Z</time>
      </trkpt>
      <trkpt lat="46.397962" lon="14.424007">
        <ele>1595.430599328</ele>
        <time>2011-04-23T14:33:36Z</time>
      </trkpt>
      <trkpt lat="46.397941" lon="14.423982">
        <ele>1595.9105934912</ele>
        <time>2011-04-23T14:33:21Z</time>
      </trkpt>
      <trkpt lat="46.397866" lon="14.423933">
        <ele>1596.8705818176</ele>
        <time>2011-04-23T14:33:09Z</time>
      </trkpt>
      <trkpt lat="46.397833" lon="14.423854">
        <ele>1599.2705526336</ele>
        <time>2011-04-23T14:32:57Z</time>
      </trkpt>
      <trkpt lat="46.397823" lon="14.423791">
        <ele>1601.6705234496</ele>
        <time>2011-04-23T14:32:45Z</time>
      </trkpt>
      <trkpt lat="46.397796" lon="14.423748">
        <ele>1603.6004999808</ele>
        <time>2011-04-23T14:32:33Z</time>
      </trkpt>
      <trkpt lat="46.397769" lon="14.423686">
        <ele>1605.5204766336</ele>
        <time>2011-04-23T14:32:18Z</time>
      </trkpt>
      <trkpt lat="46.397747" lon="14.423641">
        <ele>1606.48046496</ele>
        <time>2011-04-23T14:32:12Z</time>
      </trkpt>
      <trkpt lat="46.397700" lon="14.423562">
        <ele>1609.8404241024</ele>
        <time>2011-04-23T14:32:00Z</time>
      </trkpt>
      <trkpt lat="46.397657" lon="14.423550">
        <ele>1612.2503947968</ele>
        <time>2011-04-23T14:31:45Z</time>
      </trkpt>
      <trkpt lat="46.397634" lon="14.423537">
        <ele>1614.1703714496</ele>
        <time>2011-04-23T14:31:33Z</time>
      </trkpt>
      <trkpt lat="46.397629" lon="14.423537">
        <ele>1614.1703714496</ele>
        <time>2011-04-23T14:30:59Z</time>
      </trkpt>
      <trkpt lat="46.397625" lon="14.423537">
        <ele>1614.6503656128</ele>
        <time>2011-04-23T14:30:43Z</time>
      </trkpt>
      <trkpt lat="46.397586" lon="14.423518">
        <ele>1617.0503364288</ele>
        <time>2011-04-23T14:30:32Z</time>
      </trkpt>
      <trkpt lat="46.397532" lon="14.423500">
        <ele>1619.4603071232</ele>
        <time>2011-04-23T14:30:16Z</time>
      </trkpt>
      <trkpt lat="46.397527" lon="14.423499">
        <ele>1619.9403012864</ele>
        <time>2011-04-23T14:29:59Z</time>
      </trkpt>
      <trkpt lat="46.397516" lon="14.423414">
        <ele>1621.8602779392</ele>
        <time>2011-04-23T14:29:44Z</time>
      </trkpt>
      <trkpt lat="46.397489" lon="14.423343">
        <ele>1621.8602779392</ele>
        <time>2011-04-23T14:29:38Z</time>
      </trkpt>
      <trkpt lat="46.397473" lon="14.423327">
        <ele>1621.8602779392</ele>
        <time>2011-04-23T14:29:37Z</time>
      </trkpt>
      <trkpt lat="46.397453" lon="14.423262">
        <ele>1622.3402721024</ele>
        <time>2011-04-23T14:29:18Z</time>
      </trkpt>
      <trkpt lat="46.397441" lon="14.423231">
        <ele>1622.8202662656</ele>
        <time>2011-04-23T14:29:03Z</time>
      </trkpt>
      <trkpt lat="46.397430" lon="14.423200">
        <ele>1623.780254592</ele>
        <time>2011-04-23T14:28:44Z</time>
      </trkpt>
      <trkpt lat="46.397426" lon="14.423080">
        <ele>1625.7102311232</ele>
        <time>2011-04-23T14:28:32Z</time>
      </trkpt>
      <trkpt lat="46.397394" lon="14.422977">
        <ele>1626.1902252864</ele>
        <time>2011-04-23T14:28:26Z</time>
      </trkpt>
      <trkpt lat="46.397378" lon="14.422949">
        <ele>1626.1902252864</ele>
        <time>2011-04-23T14:28:24Z</time>
      </trkpt>
      <trkpt lat="46.397367" lon="14.422887">
        <ele>1627.630207776</ele>
        <time>2011-04-23T14:28:17Z</time>
      </trkpt>
      <trkpt lat="46.397351" lon="14.422882">
        <ele>1628.1102019392</ele>
        <time>2011-04-23T14:28:16Z</time>
      </trkpt>
      <trkpt lat="46.397312" lon="14.422856">
        <ele>1628.5901961024</ele>
        <time>2011-04-23T14:28:12Z</time>
      </trkpt>
      <trkpt lat="46.397281" lon="14.422816">
        <ele>1630.030178592</ele>
        <time>2011-04-23T14:28:04Z</time>
      </trkpt>
      <trkpt lat="46.397281" lon="14.422803">
        <ele>1630.9901669184</ele>
        <time>2011-04-23T14:27:59Z</time>
      </trkpt>
      <trkpt lat="46.397265" lon="14.422750">
        <ele>1633.4001376128</ele>
        <time>2011-04-23T14:27:45Z</time>
      </trkpt>
      <trkpt lat="46.397270" lon="14.422724">
        <ele>1634.8401201024</ele>
        <time>2011-04-23T14:27:41Z</time>
      </trkpt>
      <trkpt lat="46.397281" lon="14.422685">
        <ele>1635.8001084288</ele>
        <time>2011-04-23T14:27:27Z</time>
      </trkpt>
      <trkpt lat="46.397286" lon="14.422580">
        <ele>1638.680073408</ele>
        <time>2011-04-23T14:27:13Z</time>
      </trkpt>
      <trkpt lat="46.397286" lon="14.422560">
        <ele>1639.1700674496</ele>
        <time>2011-04-23T14:27:10Z</time>
      </trkpt>
      <trkpt lat="46.397302" lon="14.422516">
        <ele>1640.6100499392</ele>
        <time>2011-04-23T14:26:58Z</time>
      </trkpt>
      <trkpt lat="46.397324" lon="14.422467">
        <ele>1642.530026592</ele>
        <time>2011-04-23T14:26:43Z</time>
      </trkpt>
      <trkpt lat="46.397329" lon="14.422437">
        <ele>1643.4900149184</ele>
        <time>2011-04-23T14:26:32Z</time>
      </trkpt>
      <trkpt lat="46.397335" lon="14.422404">
        <ele>1645.4099915712</ele>
        <time>2011-04-23T14:26:21Z</time>
      </trkpt>
      <trkpt lat="46.397361" lon="14.422376">
        <ele>1645.8899857344</ele>
        <time>2011-04-23T14:26:17Z</time>
      </trkpt>
      <trkpt lat="46.397361" lon="14.422304">
        <ele>1645.8899857344</ele>
        <time>2011-04-23T14:26:02Z</time>
      </trkpt>
      <trkpt lat="46.397340" lon="14.422219">
        <ele>1645.8899857344</ele>
        <time>2011-04-23T14:25:49Z</time>
      </trkpt>
      <trkpt lat="46.397340" lon="14.422209">
        <ele>1645.8899857344</ele>
        <time>2011-04-23T14:25:48Z</time>
      </trkpt>
      <trkpt lat="46.397329" lon="14.422132">
        <ele>1643.0100207552</ele>
        <time>2011-04-23T14:25:37Z</time>
      </trkpt>
      <trkpt lat="46.397308" lon="14.422081">
        <ele>1643.9700090816</ele>
        <time>2011-04-23T14:25:30Z</time>
      </trkpt>
      <trkpt lat="46.397297" lon="14.422077">
        <ele>1643.0100207552</ele>
        <time>2011-04-23T14:25:14Z</time>
      </trkpt>
      <trkpt lat="46.397312" lon="14.421987">
        <ele>1642.530026592</ele>
        <time>2011-04-23T14:24:59Z</time>
      </trkpt>
      <trkpt lat="46.397312" lon="14.421960">
        <ele>1643.0100207552</ele>
        <time>2011-04-23T14:24:48Z</time>
      </trkpt>
      <trkpt lat="46.397324" lon="14.421898">
        <ele>1643.0100207552</ele>
        <time>2011-04-23T14:24:36Z</time>
      </trkpt>
      <trkpt lat="46.397324" lon="14.421882">
        <ele>1643.4900149184</ele>
        <time>2011-04-23T14:24:32Z</time>
      </trkpt>
      <trkpt lat="46.397324" lon="14.421825">
        <ele>1644.929997408</ele>
        <time>2011-04-23T14:24:21Z</time>
      </trkpt>
      <trkpt lat="46.397324" lon="14.421792">
        <ele>1646.379979776</ele>
        <time>2011-04-23T14:24:05Z</time>
      </trkpt>
      <trkpt lat="46.397324" lon="14.421777">
        <ele>1645.8899857344</ele>
        <time>2011-04-23T14:23:50Z</time>
      </trkpt>
      <trkpt lat="46.397324" lon="14.421720">
        <ele>1646.379979776</ele>
        <time>2011-04-23T14:23:38Z</time>
      </trkpt>
      <trkpt lat="46.397335" lon="14.421623">
        <ele>1644.929997408</ele>
        <time>2011-04-23T14:23:24Z</time>
      </trkpt>
      <trkpt lat="46.397292" lon="14.421494">
        <ele>1644.929997408</ele>
        <time>2011-04-23T14:23:15Z</time>
      </trkpt>
      <trkpt lat="46.397275" lon="14.421475">
        <ele>1645.8899857344</ele>
        <time>2011-04-23T14:23:08Z</time>
      </trkpt>
      <trkpt lat="46.397238" lon="14.421363">
        <ele>1645.8899857344</ele>
        <time>2011-04-23T14:22:56Z</time>
      </trkpt>
      <trkpt lat="46.397227" lon="14.421358">
        <ele>1646.379979776</ele>
        <time>2011-04-23T14:22:56Z</time>
      </trkpt>
      <trkpt lat="46.397227" lon="14.421342">
        <ele>1647.8199622656</ele>
        <time>2011-04-23T14:22:36Z</time>
      </trkpt>
      <trkpt lat="46.397216" lon="14.421320">
        <ele>1648.779950592</ele>
        <time>2011-04-23T14:22:20Z</time>
      </trkpt>
      <trkpt lat="46.397216" lon="14.421290">
        <ele>1648.2999564288</ele>
        <time>2011-04-23T14:22:06Z</time>
      </trkpt>
      <trkpt lat="46.397200" lon="14.421250">
        <ele>1648.779950592</ele>
        <time>2011-04-23T14:21:54Z</time>
      </trkpt>
      <trkpt lat="46.397184" lon="14.421206">
        <ele>1649.7399389184</ele>
        <time>2011-04-23T14:21:35Z</time>
      </trkpt>
      <trkpt lat="46.397184" lon="14.421204">
        <ele>1648.779950592</ele>
        <time>2011-04-23T14:21:05Z</time>
      </trkpt>
      <trkpt lat="46.397163" lon="14.421163">
        <ele>1648.779950592</ele>
        <time>2011-04-23T14:20:48Z</time>
      </trkpt>
      <trkpt lat="46.397147" lon="14.421142">
        <ele>1649.7399389184</ele>
        <time>2011-04-23T14:20:45Z</time>
      </trkpt>
      <trkpt lat="46.397125" lon="14.421125">
        <ele>1650.6999272448</ele>
        <time>2011-04-23T14:20:30Z</time>
      </trkpt>
      <trkpt lat="46.397114" lon="14.421120">
        <ele>1652.1399097344</ele>
        <time>2011-04-23T14:20:18Z</time>
      </trkpt>
      <trkpt lat="46.397110" lon="14.421110">
        <ele>1653.0998980608</ele>
        <time>2011-04-23T14:20:06Z</time>
      </trkpt>
      <trkpt lat="46.397104" lon="14.421098">
        <ele>1653.0998980608</ele>
        <time>2011-04-23T14:19:48Z</time>
      </trkpt>
      <trkpt lat="46.397120" lon="14.421050">
        <ele>1654.0698862656</ele>
        <time>2011-04-23T14:19:28Z</time>
      </trkpt>
      <trkpt lat="46.397120" lon="14.421054">
        <ele>1654.0698862656</ele>
        <time>2011-04-23T14:19:12Z</time>
      </trkpt>
      <trkpt lat="46.397114" lon="14.420976">
        <ele>1655.029874592</ele>
        <time>2011-04-23T14:19:00Z</time>
      </trkpt>
      <trkpt lat="46.397082" lon="14.420896">
        <ele>1656.9498512448</ele>
        <time>2011-04-23T14:18:48Z</time>
      </trkpt>
      <trkpt lat="46.397087" lon="14.420892">
        <ele>1657.429845408</ele>
        <time>2011-04-23T14:18:45Z</time>
      </trkpt>
      <trkpt lat="46.397044" lon="14.420870">
        <ele>1659.3498220608</ele>
        <time>2011-04-23T14:18:30Z</time>
      </trkpt>
      <trkpt lat="46.397028" lon="14.420865">
        <ele>1659.829816224</ele>
        <time>2011-04-23T14:18:18Z</time>
      </trkpt>
      <trkpt lat="46.396949" lon="14.420857">
        <ele>1660.3098103872</ele>
        <time>2011-04-23T14:18:05Z</time>
      </trkpt>
      <trkpt lat="46.396899" lon="14.420838">
        <ele>1658.8698278976</ele>
        <time>2011-04-23T14:17:55Z</time>
      </trkpt>
      <trkpt lat="46.396899" lon="14.420838">
        <ele>1659.3498220608</ele>
        <time>2011-04-23T14:17:29Z</time>
      </trkpt>
      <trkpt lat="46.396890" lon="14.420830">
        <ele>1658.8698278976</ele>
        <time>2011-04-23T14:17:04Z</time>
      </trkpt>
      <trkpt lat="46.396879" lon="14.420832">
        <ele>1658.8698278976</ele>
        <time>2011-04-23T14:16:49Z</time>
      </trkpt>
      <trkpt lat="46.396814" lon="14.420829">
        <ele>1656.9498512448</ele>
        <time>2011-04-23T14:16:37Z</time>
      </trkpt>
      <trkpt lat="46.396738" lon="14.420815">
        <ele>1658.8698278976</ele>
        <time>2011-04-23T14:16:25Z</time>
      </trkpt>
      <trkpt lat="46.396712" lon="14.420803">
        <ele>1658.8698278976</ele>
        <time>2011-04-23T14:16:12Z</time>
      </trkpt>
      <trkpt lat="46.396691" lon="14.420814">
        <ele>1660.3098103872</ele>
        <time>2011-04-23T14:15:54Z</time>
      </trkpt>
      <trkpt lat="46.396691" lon="14.420814">
        <ele>1661.279798592</ele>
        <time>2011-04-23T14:15:36Z</time>
      </trkpt>
      <trkpt lat="46.396664" lon="14.420794">
        <ele>1662.2397869184</ele>
        <time>2011-04-23T14:15:24Z</time>
      </trkpt>
      <trkpt lat="46.396648" lon="14.420780">
        <ele>1663.679769408</ele>
        <time>2011-04-23T14:15:16Z</time>
      </trkpt>
      <trkpt lat="46.396616" lon="14.420771">
        <ele>1665.1197518976</ele>
        <time>2011-04-23T14:15:01Z</time>
      </trkpt>
      <trkpt lat="46.396573" lon="14.420774">
        <ele>1667.5197227136</ele>
        <time>2011-04-23T14:14:50Z</time>
      </trkpt>
      <trkpt lat="46.396530" lon="14.420756">
        <ele>1668.9697050816</ele>
        <time>2011-04-23T14:14:38Z</time>
      </trkpt>
      <trkpt lat="46.396530" lon="14.420744">
        <ele>1670.4096875712</ele>
        <time>2011-04-23T14:14:24Z</time>
      </trkpt>
      <trkpt lat="46.396530" lon="14.420742">
        <ele>1670.8896817344</ele>
        <time>2011-04-23T14:14:00Z</time>
      </trkpt>
      <trkpt lat="46.396514" lon="14.420673">
        <ele>1672.329664224</ele>
        <time>2011-04-23T14:13:48Z</time>
      </trkpt>
      <trkpt lat="46.396487" lon="14.420637">
        <ele>1675.2096292032</ele>
        <time>2011-04-23T14:13:33Z</time>
      </trkpt>
      <trkpt lat="46.396481" lon="14.420610">
        <ele>1675.6996232448</ele>
        <time>2011-04-23T14:13:21Z</time>
      </trkpt>
      <trkpt lat="46.396477" lon="14.420593">
        <ele>1677.1396057344</ele>
        <time>2011-04-23T14:13:08Z</time>
      </trkpt>
      <trkpt lat="46.396454" lon="14.420573">
        <ele>1678.579588224</ele>
        <time>2011-04-23T14:12:53Z</time>
      </trkpt>
      <trkpt lat="46.396444" lon="14.420637">
        <ele>1679.0595823872</ele>
        <time>2011-04-23T14:12:41Z</time>
      </trkpt>
      <trkpt lat="46.396401" lon="14.420681">
        <ele>1678.579588224</ele>
        <time>2011-04-23T14:12:28Z</time>
      </trkpt>
      <trkpt lat="46.396391" lon="14.420694">
        <ele>1678.0995940608</ele>
        <time>2011-04-23T14:12:27Z</time>
      </trkpt>
      <trkpt lat="46.396359" lon="14.420716">
        <ele>1677.6195998976</ele>
        <time>2011-04-23T14:12:15Z</time>
      </trkpt>
      <trkpt lat="46.396273" lon="14.420713">
        <ele>1674.72963504</ele>
        <time>2011-04-23T14:12:00Z</time>
      </trkpt>
      <trkpt lat="46.396223" lon="14.420685">
        <ele>1673.2896525504</ele>
        <time>2011-04-23T14:11:49Z</time>
      </trkpt>
      <trkpt lat="46.396155" lon="14.420635">
        <ele>1670.8896817344</ele>
        <time>2011-04-23T14:11:37Z</time>
      </trkpt>
      <trkpt lat="46.396155" lon="14.420628">
        <ele>1671.3696758976</ele>
        <time>2011-04-23T14:11:33Z</time>
      </trkpt>
      <trkpt lat="46.396069" lon="14.420551">
        <ele>1670.8896817344</ele>
        <time>2011-04-23T14:11:22Z</time>
      </trkpt>
      <trkpt lat="46.396063" lon="14.420543">
        <ele>1670.8896817344</ele>
        <time>2011-04-23T14:11:10Z</time>
      </trkpt>
      <trkpt lat="46.396026" lon="14.420496">
        <ele>1669.929693408</ele>
        <time>2011-04-23T14:10:57Z</time>
      </trkpt>
      <trkpt lat="46.395999" lon="14.420379">
        <ele>1672.329664224</ele>
        <time>2011-04-23T14:10:44Z</time>
      </trkpt>
      <trkpt lat="46.395993" lon="14.420370">
        <ele>1672.8096583872</ele>
        <time>2011-04-23T14:10:42Z</time>
      </trkpt>
      <trkpt lat="46.395940" lon="14.420299">
        <ele>1674.72963504</ele>
        <time>2011-04-23T14:10:30Z</time>
      </trkpt>
      <trkpt lat="46.395929" lon="14.420270">
        <ele>1676.179617408</ele>
        <time>2011-04-23T14:10:04Z</time>
      </trkpt>
      <trkpt lat="46.395923" lon="14.420267">
        <ele>1676.6596115712</ele>
        <time>2011-04-23T14:09:45Z</time>
      </trkpt>
      <trkpt lat="46.395923" lon="14.420261">
        <ele>1676.179617408</ele>
        <time>2011-04-23T14:09:19Z</time>
      </trkpt>
      <trkpt lat="46.395880" lon="14.420239">
        <ele>1677.6195998976</ele>
        <time>2011-04-23T14:09:07Z</time>
      </trkpt>
      <trkpt lat="46.395821" lon="14.420185">
        <ele>1678.0995940608</ele>
        <time>2011-04-23T14:08:56Z</time>
      </trkpt>
      <trkpt lat="46.395735" lon="14.420141">
        <ele>1678.579588224</ele>
        <time>2011-04-23T14:08:46Z</time>
      </trkpt>
      <trkpt lat="46.395699" lon="14.420119">
        <ele>1679.5395765504</ele>
        <time>2011-04-23T14:08:40Z</time>
      </trkpt>
      <trkpt lat="46.395667" lon="14.420104">
        <ele>1680.0195707136</ele>
        <time>2011-04-23T14:08:38Z</time>
      </trkpt>
      <trkpt lat="46.395640" lon="14.420098">
        <ele>1681.9395473664</ele>
        <time>2011-04-23T14:08:25Z</time>
      </trkpt>
      <trkpt lat="46.395570" lon="14.420044">
        <ele>1683.8695238976</ele>
        <time>2011-04-23T14:08:13Z</time>
      </trkpt>
      <trkpt lat="46.395548" lon="14.420028">
        <ele>1685.3095063872</ele>
        <time>2011-04-23T14:07:53Z</time>
      </trkpt>
      <trkpt lat="46.395538" lon="14.420013">
        <ele>1684.829512224</ele>
        <time>2011-04-23T14:07:31Z</time>
      </trkpt>
      <trkpt lat="46.395515" lon="14.419989">
        <ele>1684.829512224</ele>
        <time>2011-04-23T14:07:15Z</time>
      </trkpt>
      <trkpt lat="46.395500" lon="14.419980">
        <ele>1684.829512224</ele>
        <time>2011-04-23T14:06:56Z</time>
      </trkpt>
      <trkpt lat="46.395430" lon="14.419968">
        <ele>1685.7895005504</ele>
        <time>2011-04-23T14:06:48Z</time>
      </trkpt>
      <trkpt lat="46.395419" lon="14.419968">
        <ele>1685.3095063872</ele>
        <time>2011-04-23T14:06:25Z</time>
      </trkpt>
      <trkpt lat="46.395403" lon="14.419972">
        <ele>1685.3095063872</ele>
        <time>2011-04-23T14:06:10Z</time>
      </trkpt>
      <trkpt lat="46.395323" lon="14.419993">
        <ele>1683.8695238976</ele>
        <time>2011-04-23T14:06:00Z</time>
      </trkpt>
      <trkpt lat="46.395285" lon="14.419995">
        <ele>1683.8695238976</ele>
        <time>2011-04-23T14:05:46Z</time>
      </trkpt>
      <trkpt lat="46.395264" lon="14.419949">
        <ele>1685.3095063872</ele>
        <time>2011-04-23T14:05:37Z</time>
      </trkpt>
      <trkpt lat="46.395253" lon="14.419937">
        <ele>1685.3095063872</ele>
        <time>2011-04-23T14:05:18Z</time>
      </trkpt>
      <trkpt lat="46.395226" lon="14.419917">
        <ele>1687.22948304</ele>
        <time>2011-04-23T14:04:56Z</time>
      </trkpt>
    </trkseg>
  </trk>
</gpx>
